July 2, 2022
Temp
 
75.0 °F
 
Dew Pt.
 
61.1 °F
 
Humidity
 
62%
 
Pressure
 
1012.7 hPa 
  steady
Wind
 
3.0 mph 
    W
Rain
 
0.00 in 
  0.00 in/hr
UV index
 
---  
 
Solar rad.
 
100 W/m²
 
Today

Today: Sunny, with a high near 84. Light south wind becoming southwest 5 to 10 mph in the afternoon. Winds could gust as high as 15 mph.
Sunny
Tonight

Tonight: Mostly clear, with a low around 60. Southwest wind 5 to 10 mph becoming light west  in the evening.
Mostly Clear
Hi 84 °F Lo 60 °F
MAP MAG LOCAL DATETIME
y/m/d h:m:s
LAT
deg
LON
deg
DEPTH
km
LOCATION
map0.42022/07/02 09:12:5738.816N122.816W3.48 7 km ( 4 mi) NW of The Geysers, CA
map0.82022/07/02 09:09:4733.250N116.101W3.26 12 km ( 8 mi) NNE of Ocotillo Wells, CA
map2.72022/07/02 08:57:2440.239N124.698W0 53 km (33 mi) SW of Ferndale, CA
map0.72022/07/02 08:37:1633.383N116.877W5.25 3 km ( 2 mi) NNW of Palomar Observatory, CA
map0.42022/07/02 08:05:5235.926N117.735W4.45 16 km (10 mi) E of Little Lake, CA
map1.32022/07/02 08:01:1534.642N119.909W5.35 16 km (10 mi) E of Santa Ynez, CA
map0.22022/07/02 07:51:0638.795N122.750W2.63 2 km ( 1 mi) NNE of The Geysers, CA
map0.32022/07/02 07:17:2533.660N116.755W13.58 10 km ( 6 mi) SSW of Idyllwild, CA
map0.82022/07/02 07:16:4333.667N116.757W14.46 9 km ( 5 mi) SSW of Idyllwild, CA
map1.12022/07/02 06:45:4535.773N117.595W9.74 17 km (11 mi) W of Searles Valley, CA
map1.22022/07/02 06:21:3836.177N117.881W7.31 16 km (10 mi) NNE of Coso Junction, CA
map1.42022/07/02 06:17:0938.155N117.942W9.5 63 km (39 mi) W of Tonopah, NV
map0.72022/07/02 06:16:0038.801N122.726W1.59 2 km ( 1 mi) S of Cobb, CA
map1.62022/07/02 05:59:4036.173N118.034W1.29 12 km ( 8 mi) SSW of Olancha, CA
map0.52022/07/02 05:40:4133.295N116.738W12.52 6 km ( 4 mi) NNE of Lake Henshaw, CA
map1.52022/07/02 05:37:1534.074N116.620W4.24 5 km ( 3 mi) NW of Morongo Valley, CA
map1.82022/07/02 05:28:3636.491N121.021W8.63 27 km (17 mi) NE of Greenfield, CA
map1.02022/07/02 04:25:2733.672N116.716W14.28 8 km ( 5 mi) S of Idyllwild, CA
map0.22022/07/02 04:07:5333.601N116.748W12.95 9 km ( 5 mi) NW of Anza, CA
map0.12022/07/02 03:56:1933.608N116.738W14.62 8 km ( 5 mi) NW of Anza, CA
map0.82022/07/02 03:44:2733.604N116.738W12.54 8 km ( 5 mi) NW of Anza, CA
map0.42022/07/02 03:32:4238.834N122.804W1.92 7 km ( 4 mi) W of Cobb, CA
map1.82022/07/02 03:29:2938.834N122.803W1.81 7 km ( 4 mi) W of Cobb, CA
map1.12022/07/02 03:28:0533.758N116.821W1.9 7 km ( 4 mi) E of Valle Vista, CA
map2.32022/07/02 03:24:4336.813N121.544W5.53 4 km ( 2 mi) S of San Juan Bautista, CA
map0.22022/07/02 03:16:3333.606N116.740W12.04 8 km ( 5 mi) NW of Anza, CA
map1.82022/07/02 03:11:4639.072N123.097W2.55 9 km ( 6 mi) SE of Talmage, CA
map0.72022/07/02 03:10:1033.445N116.639W4.64 13 km ( 8 mi) SSE of Anza, CA
map0.72022/07/02 03:05:1033.606N116.737W12.78 8 km ( 5 mi) NW of Anza, CA
map0.72022/07/02 02:59:4333.478N116.851W-0.01 4 km ( 3 mi) NNE of Aguanga, CA
map0.92022/07/02 02:31:2038.644N118.744W13.0 17 km (10 mi) NW of Hawthorne, NV
map0.42022/07/02 01:58:3537.579N118.867W3.73 12 km ( 7 mi) ESE of Mammoth Lakes, CA
map0.42022/07/02 01:52:4038.847N122.818W1.33 9 km ( 5 mi) WNW of Cobb, CA
map1.92022/07/02 01:38:2637.581N118.868W3.53 12 km ( 7 mi) ESE of Mammoth Lakes, CA
map0.72022/07/02 01:15:3438.793N122.729W2.12 3 km ( 2 mi) NE of The Geysers, CA
map1.52022/07/02 01:15:2135.661N117.523W10.98 14 km ( 9 mi) ENE of Ridgecrest, CA
map1.92022/07/02 01:04:2236.086N117.873W2.43 8 km ( 5 mi) NE of Coso Junction, CA
map1.12022/07/02 01:02:0233.678N116.815W11.74 11 km ( 7 mi) SE of Valle Vista, CA
map2.12022/07/02 00:51:2240.084N123.698W22.61 11 km ( 7 mi) ESE of Redway, CA
map0.52022/07/02 00:45:3333.609N116.737W12.48 8 km ( 5 mi) NW of Anza, CA
map0.92022/07/02 00:35:4233.606N116.738W11.85 8 km ( 5 mi) NW of Anza, CA
map0.72022/07/02 00:26:4834.004N116.762W13.48 10 km ( 6 mi) NNE of Cabazon, CA
map0.62022/07/02 00:22:4233.094N116.579W14.13 3 km ( 2 mi) NE of Julian, CA
map0.82022/07/01 23:52:5533.605N116.737W12.44 8 km ( 5 mi) NW of Anza, CA
map1.52022/07/01 23:35:3233.600N116.743W11.85 8 km ( 5 mi) NW of Anza, CA
map0.82022/07/01 22:47:0433.488N116.436W2.1 23 km (14 mi) SSW of La Quinta, CA
map0.52022/07/01 22:37:4533.492N116.432W4.58 22 km (14 mi) SSW of La Quinta, CA
map0.32022/07/01 22:32:5833.622N116.737W12.57 9 km ( 6 mi) NW of Anza, CA
map1.12022/07/01 22:29:0534.084N117.833W12.18 2 km ( 2 mi) SSE of Charter Oak, CA
map0.42022/07/01 22:14:3733.606N116.738W12.53 8 km ( 5 mi) NW of Anza, CA
map1.02022/07/01 22:14:3438.715N122.903W8.04 12 km ( 7 mi) NNW of Healdsburg, CA
map0.42022/07/01 22:13:0033.603N116.732W12.25 8 km ( 5 mi) NW of Anza, CA
map0.72022/07/01 22:11:1333.606N116.737W12.55 8 km ( 5 mi) NW of Anza, CA
map0.92022/07/01 22:09:2038.821N122.799W3.08 6 km ( 4 mi) NW of The Geysers, CA
map1.02022/07/01 21:36:0938.786N122.767W2.83 1 km ( 1 mi) NW of The Geysers, CA
map-0.12022/07/01 21:34:1438.788N122.763W2.82 1 km ( 1 mi) NNW of The Geysers, CA
map0.52022/07/01 21:26:2433.613N116.737W13.64 9 km ( 5 mi) NW of Anza, CA
map0.42022/07/01 20:12:0636.025N120.597W5.3 20 km (13 mi) NW of Parkfield, CA
map0.32022/07/01 20:12:0035.685N121.006W8.98 12 km ( 8 mi) WSW of Lake Nacimiento, CA
map0.62022/07/01 18:38:4037.607N122.448W4.45 3 km ( 2 mi) ESE of Pacifica, CA
map0.92022/07/01 18:25:4833.906N117.204W14.99 3 km ( 2 mi) SE of Moreno Valley, CA
map0.42022/07/01 17:25:5633.594N116.802W9.76 13 km ( 8 mi) WNW of Anza, CA
map1.22022/07/01 17:09:1935.724N117.557W12.12 15 km ( 9 mi) WSW of Searles Valley, CA
map0.32022/07/01 17:02:1037.352N122.221W11.4 4 km ( 2 mi) SSE of Portola Valley, CA
map0.62022/07/01 17:01:5737.151N121.562W3.13 8 km ( 5 mi) ENE of Morgan Hill, CA
map0.42022/07/01 16:56:4738.827N122.814W2.29 7 km ( 5 mi) NW of The Geysers, CA
map1.12022/07/01 15:48:3039.040N118.883W12.5 25 km (15 mi) ENE of Yerington, NV
map1.32022/07/01 15:36:4338.159N118.233W8.6 53 km (33 mi) SE of Hawthorne, NV
map0.52022/07/01 15:21:5538.828N122.801W2.79 7 km ( 4 mi) W of Cobb, CA
map0.52022/07/01 15:19:3338.164N118.198W10.6 55 km (34 mi) SE of Hawthorne, NV
map1.52022/07/01 14:17:0733.305N117.499W4.12 14 km ( 9 mi) NW of Camp Pendleton South, CA
map0.12022/07/01 14:15:2838.812N122.808W1.34 6 km ( 4 mi) NW of The Geysers, CA
map1.32022/07/01 13:47:3038.759N122.704W1.19 5 km ( 3 mi) ESE of The Geysers, CA
map0.92022/07/01 13:20:1338.837N122.826W1.37 9 km ( 6 mi) NW of The Geysers, CA
map1.42022/07/01 13:14:1937.629N118.873W0.41 9 km ( 6 mi) E of Mammoth Lakes, CA
map-0.22022/07/01 12:54:0338.258N118.373W10.0 37 km (23 mi) SE of Hawthorne, NV
map0.82022/07/01 12:27:3438.812N122.808W1.24 6 km ( 4 mi) NW of The Geysers, CA
map1.12022/07/01 12:02:5136.171N115.284W10.6 6 km ( 4 mi) WSW of Las Vegas, NV
map1.62022/07/01 12:01:0133.852N117.493W0.58 1 km ( 0 mi) ENE of Quarry at CORONA (Probable quarry explosion)
map0.92022/07/01 11:36:4338.834N122.808W2.83 7 km ( 5 mi) W of Cobb, CA
map0.52022/07/01 11:29:3137.622N119.023W2.79 4 km ( 3 mi) WSW of Mammoth Lakes, CA
map1.22022/07/01 11:11:0739.810N120.442W0.0 2 km ( 1 mi) E of Portola, CA
map1.02022/07/01 11:03:4538.395N118.913W9.2 29 km (18 mi) WSW of Hawthorne, NV
map0.92022/07/01 10:45:3138.817N122.804W2.18 6 km ( 4 mi) NW of The Geysers, CA
map1.12022/07/01 10:37:3735.994N117.681W2.26 21 km (13 mi) ENE of Little Lake, CA
map1.92022/07/01 10:16:1033.367N116.392W11.74 12 km ( 8 mi) N of Borrego Springs, CA
map0.12022/07/01 09:48:2140.099N119.657W14.1 50 km (31 mi) N of Spanish Springs, NV
map0.92022/07/01 09:15:4538.834N122.816W1.72 8 km ( 5 mi) NW of The Geysers, CA
map0.92022/07/01 09:01:0238.826N122.764W2.02 4 km ( 2 mi) W of Cobb, CA
map0.42022/07/01 08:58:5733.491N116.752W7.07 10 km ( 6 mi) SW of Anza, CA
map0.32022/07/01 08:14:5937.137N117.157W10.0 44 km (27 mi) NW of Beatty, NV
map1.22022/07/01 08:02:2537.670N122.378W10.4 2 km ( 1 mi) ESE of Brisbane, CA
map0.42022/07/01 07:55:4233.554N116.804W16.35 12 km ( 7 mi) W of Anza, CA
map2.12022/07/01 07:39:3638.810N122.800W2.69 5 km ( 3 mi) NW of The Geysers, CA
map0.52022/07/01 07:13:5240.053N119.573W14.4 46 km (29 mi) NNE of Spanish Springs, NV
map0.92022/07/01 07:09:3539.575N119.073W7.5 16 km (10 mi) ESE of Fernley, NV
map1.52022/07/01 06:56:0335.365N120.676W6.87 7 km ( 4 mi) WSW of Santa Margarita, CA
map1.42022/07/01 06:53:5238.830N122.804W1.61 7 km ( 4 mi) W of Cobb, CA
map1.12022/07/01 06:52:4438.829N122.802W1.32 7 km ( 4 mi) W of Cobb, CA
map1.52022/07/01 06:40:2435.999N120.543W11.58 15 km ( 9 mi) NW of Parkfield, CA
map0.92022/07/01 06:35:0538.794N122.724W1.86 3 km ( 2 mi) S of Cobb, CA
map0.52022/07/01 06:33:2233.444N116.634W4.42 13 km ( 8 mi) SSE of Anza, CA
map1.52022/07/01 06:28:3136.091N117.691W0.97 24 km (15 mi) ENE of Coso Junction, CA
map0.02022/07/01 06:03:0237.448N116.008W0.0 75 km (47 mi) W of Alamo, NV
map1.02022/07/01 05:53:0738.819N122.771W0.89 4 km ( 3 mi) W of Cobb, CA
map1.22022/07/01 05:25:4235.896N117.712W3.74 18 km (11 mi) ESE of Little Lake, CA
map1.12022/07/01 05:14:3538.831N122.802W1.73 7 km ( 4 mi) W of Cobb, CA
map1.22022/07/01 04:57:3738.787N122.769W1.98 2 km ( 1 mi) NW of The Geysers, CA
map1.02022/07/01 04:23:2433.378N116.884W6.44 3 km ( 2 mi) NW of Palomar Observatory, CA
map0.72022/07/01 04:19:2333.380N116.883W6.99 3 km ( 2 mi) NNW of Palomar Observatory, CA
map0.92022/07/01 04:16:3638.837N122.792W2.23 6 km ( 4 mi) WNW of Cobb, CA
map0.92022/07/01 04:15:4433.496N116.485W14.5 19 km (12 mi) ESE of Anza, CA
MAP3.22022/07/01 04:13:4741.397N119.104W17121 km (75 mi) E of Alturas, CA
map0.42022/07/01 04:11:0333.376N116.875W7.39 2 km ( 2 mi) NNW of Palomar Observatory, CA
map1.32022/07/01 03:33:5840.063N119.167W6.2 51 km (32 mi) N of Fernley, NV
map0.92022/07/01 03:24:2338.837N122.800W2.2 7 km ( 4 mi) WNW of Cobb, CA
map2.22022/07/01 03:20:1838.144N117.886W8.2 58 km (36 mi) W of Tonopah, NV
map0.02022/07/01 03:17:1238.773N122.740W1.01 2 km ( 1 mi) ESE of The Geysers, CA
map1.92022/07/01 03:16:2535.685N117.572W7.55 12 km ( 7 mi) NE of Ridgecrest, CA
map0.92022/07/01 03:14:2538.835N122.813W1.66 8 km ( 5 mi) W of Cobb, CA
map1.22022/07/01 02:57:5238.795N122.766W1.16 2 km ( 1 mi) NNW of The Geysers, CA
map1.12022/07/01 02:48:4833.975N117.221W12.74 5 km ( 3 mi) N of Moreno Valley, CA
map0.52022/07/01 02:30:3133.377N116.882W6.13 3 km ( 2 mi) NW of Palomar Observatory, CA
map0.92022/07/01 02:23:3538.835N122.818W1.54 8 km ( 5 mi) W of Cobb, CA
map1.12022/07/01 00:43:1535.748N117.568W8.34 15 km ( 9 mi) W of Searles Valley, CA
map1.32022/07/01 00:17:4635.597N117.414W4.71 19 km (12 mi) S of Trona, CA
map1.12022/07/01 00:08:1938.256N118.357W7.2 38 km (24 mi) SE of Hawthorne, NV
map0.72022/06/30 23:18:0533.675N116.748W12.99 8 km ( 5 mi) SSW of Idyllwild, CA
map1.62022/06/30 23:02:1835.901N117.716W7.15 18 km (11 mi) ESE of Little Lake, CA
map0.72022/06/30 23:00:1738.520N119.532W6.6 34 km (21 mi) SSW of Smith Valley, NV
map1.52022/06/30 22:53:2138.772N122.725W1.27 3 km ( 2 mi) ESE of The Geysers, CA
map0.62022/06/30 22:50:0133.856N116.792W11.26 7 km ( 4 mi) S of Cabazon, CA
MAP3.22022/06/30 22:27:5637.193N118.269W11.63 4 km ( 2 mi) NNE of Big Pine, CA
map0.92022/06/30 22:25:3738.845N122.839W1.39 10 km ( 6 mi) WNW of Cobb, CA
map0.82022/06/30 22:25:0433.956N117.145W13.96 8 km ( 5 mi) ENE of Moreno Valley, CA
map0.62022/06/30 21:45:5533.349N116.298W11.78 13 km ( 8 mi) NE of Borrego Springs, CA
map1.02022/06/30 21:22:5335.185N118.172W11.55 15 km ( 9 mi) N of Mojave, CA
map1.92022/06/30 21:16:0635.539N118.442W7.9 7 km ( 4 mi) SE of Bodfish, CA
map1.72022/06/30 21:07:4238.833N122.742W-0.29 2 km ( 1 mi) NW of Cobb, CA
map1.02022/06/30 20:57:4433.671N116.734W13.72 8 km ( 5 mi) S of Idyllwild, CA
map1.92022/06/30 20:44:4136.831N121.411W10.39 2 km ( 1 mi) SSW of Hollister, CA
map0.62022/06/30 20:40:4137.632N118.874W-0.06 9 km ( 6 mi) E of Mammoth Lakes, CA
map1.92022/06/30 20:32:5838.824N122.785W0.76 5 km ( 3 mi) W of Cobb, CA
map0.62022/06/30 20:09:1436.773N115.501W0.0 68 km (42 mi) NNW of North Las Vegas, NV
map2.32022/06/30 20:05:2536.831N121.411W10.36 2 km ( 1 mi) SSW of Hollister, CA
map0.82022/06/30 19:55:2333.326N116.271W10.9 12 km ( 8 mi) NE of Borrego Springs, CA
map0.42022/06/30 19:38:1738.844N122.841W1.56 10 km ( 6 mi) NW of The Geysers, CA
map1.22022/06/30 19:36:0435.665N117.484W13.57 13 km ( 8 mi) SSW of Searles Valley, CA
map1.12022/06/30 19:25:3536.826N121.264W9.98 9 km ( 6 mi) E of Ridgemark, CA
map1.22022/06/30 19:20:3134.323N116.841W4.97 7 km ( 4 mi) N of Big Bear City, CA
map0.82022/06/30 19:13:3838.836N122.809W2.02 8 km ( 5 mi) WNW of Cobb, CA
map1.42022/06/30 19:01:2136.402N120.983W10.23 25 km (15 mi) NNE of King City, CA
map2.72022/06/30 18:40:5140.374N124.305W28.5 22 km (14 mi) SW of Rio Dell, CA
map1.12022/06/30 18:11:2833.420N116.368W11.36 18 km (11 mi) N of Borrego Springs, CA
map0.82022/06/30 18:07:5038.820N122.803W2.62 6 km ( 4 mi) NW of The Geysers, CA
map0.82022/06/30 17:23:5135.996N120.544W11.14 15 km ( 9 mi) NW of Parkfield, CA
map1.52022/06/30 17:18:0335.492N118.295W4.88 21 km (13 mi) ESE of Bodfish, CA
map0.42022/06/30 17:09:5238.823N122.805W2.42 7 km ( 4 mi) NW of The Geysers, CA
map0.92022/06/30 16:40:5133.878N117.499W-0.49 3 km ( 2 mi) SSE of Quarry at GAV (Probable quarry explosion)
map0.82022/06/30 15:54:4033.956N117.797W7.95 5 km ( 3 mi) SW of Chino Hills, CA
map1.52022/06/30 15:54:0432.650N115.731W8.55 16 km (10 mi) WNW of Progreso, B.C., MX
map0.92022/06/30 15:52:5238.796N122.794W2.94 4 km ( 2 mi) WNW of The Geysers, CA
map1.22022/06/30 15:50:2838.809N122.773W1.2 4 km ( 2 mi) NNW of The Geysers, CA
map1.22022/06/30 15:26:4434.156N117.449W8.78 7 km ( 4 mi) N of Fontana, CA
map0.72022/06/30 15:14:2635.748N117.546W7.74 13 km ( 8 mi) W of Searles Valley, CA
map1.22022/06/30 14:49:0740.244N124.187W11.43 29 km (18 mi) SSW of Rio Dell, CA
map0.52022/06/30 14:39:3838.833N122.807W2.31 7 km ( 5 mi) W of Cobb, CA
map1.82022/06/30 14:27:0738.216N117.769W6.3 50 km (31 mi) WNW of Tonopah, NV
map1.62022/06/30 13:22:4838.134N118.097W3.0 63 km (39 mi) SE of Hawthorne, NV
map1.62022/06/30 13:16:3438.115N122.176W-0.07 19 km (12 mi) SSE of Quarry near Sears Point, CA(Probable quarry explosion)
map2.32022/06/30 13:09:4138.550N119.523W5.78 30 km (19 mi) SSW of Smith Valley, NV
map0.22022/06/30 13:06:3238.774N122.713W1.64 4 km ( 2 mi) E of The Geysers, CA
map2.52022/06/30 13:03:4137.298N120.013W23.95 21 km (13 mi) S of Mariposa, CA
map0.12022/06/30 12:59:3437.639N118.882W-0.44 9 km ( 5 mi) E of Mammoth Lakes, CA
map1.62022/06/30 12:48:4834.999N116.955W7.05 13 km ( 8 mi) NNE of Barstow, CA
map1.12022/06/30 12:44:1535.673N117.524W11.72 15 km ( 9 mi) ENE of Ridgecrest, CA
map1.02022/06/30 12:30:4733.746N116.039W2.71 14 km ( 9 mi) ENE of Coachella, CA
map0.92022/06/30 12:23:5233.379N116.890W7.17 4 km ( 2 mi) NW of Palomar Observatory, CA
map0.82022/06/30 12:20:3033.671N116.775W14.85 9 km ( 6 mi) SW of Idyllwild, CA
map1.32022/06/30 12:11:4933.744N116.034W4.19 15 km ( 9 mi) ENE of Coachella, CA
map1.12022/06/30 12:09:3033.745N116.035W4.3 15 km ( 9 mi) ENE of Coachella, CA
map1.32022/06/30 11:58:2334.998N118.184W-0.86 2 km ( 1 mi) SW of Quarry at TPO-DBM (Probable quarry explosion)
map0.12022/06/30 11:51:4938.827N122.800W3.3 7 km ( 4 mi) NW of The Geysers, CA
map0.92022/06/30 11:49:1835.997N120.546W11.73 15 km ( 9 mi) NW of Parkfield, CA
map1.02022/06/30 11:11:4738.205N117.784W8.5 51 km (32 mi) WNW of Tonopah, NV
map0.22022/06/30 11:09:3735.717N117.462W4.77 8 km ( 5 mi) SW of Searles Valley, CA
map1.12022/06/30 11:05:1837.953N118.337W13.8 63 km (39 mi) N of Dixon Lane-Meadow Creek, CA
map1.12022/06/30 10:56:5835.907N117.746W7.8 15 km ( 9 mi) ESE of Little Lake, CA
MAP3.92022/06/30 10:48:1138.208N117.779W7.7 50 km (31 mi) WNW of Tonopah, NV
map0.82022/06/30 10:45:1935.907N117.748W8.81 15 km ( 9 mi) ESE of Little Lake, CA
map1.52022/06/30 10:16:1334.888N119.373W10.54 19 km (12 mi) S of Maricopa, CA
map0.52022/06/30 10:01:4138.830N122.761W-0.2 3 km ( 2 mi) WNW of Cobb, CA
map1.02022/06/30 09:48:4634.079N117.269W12.83 4 km ( 2 mi) NNW of Loma Linda, CA
map0.72022/06/30 09:42:5738.788N122.767W2.19 1 km ( 1 mi) NW of The Geysers, CA
map1.32022/06/30 09:37:1238.529N119.472W7.5 30 km (19 mi) SSW of Smith Valley, NV
map1.52022/06/30 09:17:1837.679N115.474W17.0 44 km (28 mi) NW of Alamo, NV
map1.22022/06/30 09:15:1438.165N117.899W9.7 59 km (37 mi) W of Tonopah, NV
map1.12022/06/30 09:07:0036.583N121.085W8.76 28 km (17 mi) NE of Soledad, CA
map0.42022/06/30 08:33:4638.741N122.698W1.07 6 km ( 4 mi) SE of The Geysers, CA
map0.32022/06/30 08:33:2938.743N122.700W1.4 6 km ( 4 mi) SE of The Geysers, CA
map0.12022/06/30 08:22:4038.838N122.802W1.71 7 km ( 4 mi) WNW of Cobb, CA
map0.32022/06/30 07:55:4438.761N122.732W2.8 3 km ( 2 mi) SE of The Geysers, CA
map1.22022/06/30 07:53:1338.758N122.730W1.84 3 km ( 2 mi) SE of The Geysers, CA
map0.92022/06/30 07:38:3138.816N122.818W2.72 7 km ( 4 mi) NW of The Geysers, CA
map0.72022/06/30 07:38:0536.063N117.847W1.73 9 km ( 6 mi) ENE of Coso Junction, CA
map1.22022/06/30 07:20:2435.992N117.284W2.9 27 km (17 mi) NNE of Trona, CA
map0.42022/06/30 06:36:1138.839N122.755W1.25 3 km ( 2 mi) NW of Cobb, CA
map0.82022/06/30 06:32:1438.824N122.804W2.51 7 km ( 4 mi) NW of The Geysers, CA
map1.62022/06/30 05:12:4637.828N116.032W0.0 92 km (57 mi) NW of Alamo, NV
map1.22022/06/30 04:58:5238.175N118.164W9.4 56 km (35 mi) SE of Hawthorne, NV
map2.22022/06/30 04:09:0738.163N117.904W10.2 60 km (37 mi) W of Tonopah, NV
map0.22022/06/30 03:47:1638.797N122.773W3.35 3 km ( 2 mi) NNW of The Geysers, CA
map0.92022/06/30 03:47:1133.379N116.887W6.79 3 km ( 2 mi) NW of Palomar Observatory, CA
map1.62022/06/30 03:38:0538.287N122.603W5.19 6 km ( 4 mi) ESE of Penngrove, CA
map1.22022/06/30 03:23:2138.157N117.910W9.8 60 km (37 mi) W of Tonopah, NV
map0.82022/06/30 03:22:1834.117N116.962W10.02 12 km ( 7 mi) NE of Yucaipa, CA
map0.92022/06/30 03:20:1836.117N117.865W4.58 11 km ( 7 mi) NE of Coso Junction, CA
map1.02022/06/30 03:08:5833.338N116.195W10.78 17 km (10 mi) SSW of Oasis, CA
map0.92022/06/30 03:06:0038.824N122.797W2.87 6 km ( 4 mi) NW of The Geysers, CA
map0.12022/06/30 02:51:0033.597N116.803W7.13 13 km ( 8 mi) WNW of Anza, CA
map0.92022/06/30 02:18:2133.378N116.887W6.85 3 km ( 2 mi) NW of Palomar Observatory, CA
map1.82022/06/30 02:17:5837.431N118.494W6 9 km ( 5 mi) NNW of West Bishop, CA
map1.02022/06/30 02:08:1233.379N116.885W6.95 3 km ( 2 mi) NW of Palomar Observatory, CA
map1.92022/06/30 01:28:4037.831N116.007W4.1 91 km (56 mi) NW of Alamo, NV
map0.42022/06/30 01:23:0633.364N116.971W7.39 10 km ( 6 mi) E of Pala, CA
map1.02022/06/30 00:57:5837.260N121.638W6.56 14 km ( 9 mi) N of Morgan Hill, CA
map1.22022/06/30 00:54:0337.840N116.020W8.3 92 km (57 mi) NW of Alamo, NV
map0.62022/06/30 00:48:2533.440N116.639W5.3 13 km ( 8 mi) SSE of Anza, CA
map1.32022/06/30 00:41:1337.830N115.977W14.2 88 km (55 mi) NW of Alamo, NV
map0.52022/06/30 00:40:0633.444N116.638W4.5 13 km ( 8 mi) SSE of Anza, CA
map1.72022/06/30 00:39:1737.825N116.032W0.0 92 km (57 mi) NW of Alamo, NV
map1.62022/06/30 00:38:3037.824N116.005W12.4 90 km (56 mi) NW of Alamo, NV
map0.82022/06/30 00:32:1434.029N117.230W16.61 4 km ( 2 mi) SE of Loma Linda, CA
map0.92022/06/30 00:27:4538.831N122.812W1.85 8 km ( 5 mi) NW of The Geysers, CA
map0.92022/06/30 00:23:4838.798N122.737W1.12 3 km ( 2 mi) NE of The Geysers, CA
map0.82022/06/30 00:16:1035.919N117.731W9.94 16 km (10 mi) E of Little Lake, CA
map1.12022/06/30 00:00:4338.797N122.736W0.88 3 km ( 2 mi) NE of The Geysers, CA
map0.82022/06/30 00:00:3136.769N116.268W4.5 46 km (29 mi) ESE of Beatty, NV
map0.22022/06/29 23:58:0233.644N116.696W14.38 10 km ( 6 mi) NNW of Anza, CA
map1.12022/06/29 23:37:1536.087N117.873W3.8 8 km ( 5 mi) NE of Coso Junction, CA
map0.62022/06/29 23:29:4533.654N116.722W12.43 10 km ( 6 mi) S of Idyllwild, CA
map1.32022/06/29 23:13:2037.983N118.739W15.41 44 km (27 mi) NNE of Mammoth Lakes, CA
map1.52022/06/29 23:04:2436.406N120.982W10.55 25 km (16 mi) ENE of Greenfield, CA
map0.42022/06/29 22:47:1837.634N118.879W0.11 9 km ( 5 mi) E of Mammoth Lakes, CA
map0.92022/06/29 22:45:3438.833N122.793W1.85 6 km ( 4 mi) W of Cobb, CA
map1.22022/06/29 22:41:4538.823N122.804W2.44 7 km ( 4 mi) NW of The Geysers, CA
map0.42022/06/29 22:32:0036.087N117.850W2.63 10 km ( 6 mi) ENE of Coso Junction, CA
map2.62022/06/29 22:07:2637.437N118.499W5 9 km ( 6 mi) NW of Dixon Lane-Meadow Creek, CA
map0.32022/06/29 22:04:3836.932N116.095W8.7 59 km (36 mi) E of Beatty, NV
map1.42022/06/29 21:34:3236.131N120.172W8.14 10 km ( 6 mi) SW of Huron, CA
map1.22022/06/29 21:33:0239.394N118.104W4.3 59 km (36 mi) E of Fallon, NV
map0.52022/06/29 21:31:1333.294N116.749W10.53 6 km ( 4 mi) NNE of Lake Henshaw, CA
map2.72022/06/29 21:30:3037.262N121.637W6.25 15 km ( 9 mi) N of Morgan Hill, CA
map0.92022/06/29 21:16:0738.836N122.802W2.07 7 km ( 4 mi) WNW of Cobb, CA
map1.72022/06/29 21:01:0138.823N122.804W2.66 7 km ( 4 mi) NW of The Geysers, CA
map0.82022/06/29 20:57:2537.637N118.884W-0.08 8 km ( 5 mi) E of Mammoth Lakes, CA
map0.52022/06/29 20:54:1833.724N116.769W16.35 5 km ( 3 mi) WSW of Idyllwild, CA
map0.32022/06/29 20:25:3538.835N122.791W1.85 6 km ( 4 mi) WNW of Cobb, CA
map0.62022/06/29 20:15:5333.492N116.779W4.04 10 km ( 6 mi) NE of Aguanga, CA
map0.82022/06/29 19:43:2838.804N122.779W0.92 4 km ( 2 mi) NNW of The Geysers, CA
map1.12022/06/29 19:33:3238.157N117.903W6.6 60 km (37 mi) W of Tonopah, NV
map1.32022/06/29 19:30:3238.155N117.907W7.2 60 km (37 mi) W of Tonopah, NV
map0.42022/06/29 19:24:5133.632N116.751W15.14 11 km ( 7 mi) NW of Anza, CA
map1.22022/06/29 19:09:1035.647N121.067W6.33 9 km ( 6 mi) N of Cambria, CA
map1.12022/06/29 18:51:3336.127N117.852W2.3 13 km ( 8 mi) NE of Coso Junction, CA
map1.82022/06/29 18:40:2532.955N115.549W11.28 3 km ( 2 mi) SW of Brawley, CA
map1.62022/06/29 18:37:4132.953N115.546W9.63 3 km ( 2 mi) SSW of Brawley, CA
map0.92022/06/29 18:36:3738.839N122.749W0.76 3 km ( 2 mi) NW of Cobb, CA
map1.52022/06/29 18:29:1532.949N115.547W11.18 4 km ( 2 mi) SSW of Brawley, CA
map0.92022/06/29 18:24:5133.298N116.234W7.12 14 km ( 9 mi) ENE of Borrego Springs, CA
map0.82022/06/29 17:53:4138.814N122.818W3.04 7 km ( 4 mi) NW of The Geysers, CA
map1.62022/06/29 17:43:0338.807N116.153W14.5110 km (68 mi) SE of Austin, NV
map0.42022/06/29 17:24:5538.789N122.769W2.22 2 km ( 1 mi) NW of The Geysers, CA
map1.22022/06/29 17:08:1737.545N121.933W5.04 4 km ( 3 mi) E of Fremont, CA
map1.82022/06/29 17:03:3735.401N118.645W4.32 25 km (16 mi) SW of Bodfish, CA
map1.82022/06/29 17:01:4735.402N118.650W5.59 25 km (16 mi) SW of Bodfish, CA
map2.02022/06/29 16:58:0740.297N124.548W19.42 39 km (24 mi) SW of Ferndale, CA
map0.32022/06/29 16:54:5937.657N118.904W-0.74 7 km ( 4 mi) ENE of Mammoth Lakes, CA
map1.02022/06/29 16:38:0533.979N116.880W20.03 6 km ( 4 mi) N of Banning, CA
map0.22022/06/29 16:18:5238.826N122.777W0.46 5 km ( 3 mi) W of Cobb, CA
map0.72022/06/29 16:07:4938.824N122.805W2.56 7 km ( 4 mi) NW of The Geysers, CA
map0.72022/06/29 16:07:0838.838N122.803W2.89 7 km ( 4 mi) WNW of Cobb, CA
map0.92022/06/29 15:38:5138.804N122.769W1.41 3 km ( 2 mi) NNW of The Geysers, CA
map0.52022/06/29 15:18:4038.824N122.805W2.54 7 km ( 4 mi) NW of The Geysers, CA
map2.32022/06/29 14:22:0838.521N119.522W3.9 33 km (21 mi) SSW of Smith Valley, NV
map0.52022/06/29 14:11:4537.578N118.835W4.29 14 km ( 9 mi) ESE of Mammoth Lakes, CA
map0.52022/06/29 13:43:4933.438N116.614W5.25 14 km ( 9 mi) SSE of Anza, CA
map1.12022/06/29 13:05:2633.294N116.208W10.76 16 km (10 mi) ENE of Borrego Springs, CA
map1.02022/06/29 13:00:4832.816N117.088W-0.11 1 km ( 1 mi) ENE of Quarry at MISSION (Probable quarry explosion)
map0.72022/06/29 12:53:1333.381N116.885W6.88 3 km ( 2 mi) NW of Palomar Observatory, CA
map0.72022/06/29 12:10:2536.091N117.866W3.92 9 km ( 6 mi) NE of Coso Junction, CA
map1.32022/06/29 12:00:4834.995N118.182W-0.82 2 km ( 1 mi) SSW of Quarry at TPO-DBM (Probable quarry explosion)
map0.42022/06/29 11:53:2638.800N122.750W2.42 3 km ( 2 mi) NNE of The Geysers, CA
map0.32022/06/29 11:10:1140.102N119.678W15.8 50 km (31 mi) N of Spanish Springs, NV
map1.32022/06/29 11:06:4435.638N117.457W7.88 15 km ( 9 mi) SSW of Searles Valley, CA
map0.22022/06/29 11:04:3538.817N122.765W1.92 4 km ( 2 mi) W of Cobb, CA
map0.42022/06/29 10:56:2437.598N119.010W1.69 5 km ( 3 mi) SSW of Mammoth Lakes, CA
map1.02022/06/29 10:19:2933.354N116.360W12.66 11 km ( 7 mi) N of Borrego Springs, CA
map0.32022/06/29 10:17:4140.093N119.698W15.8 49 km (31 mi) N of Spanish Springs, NV
map0.82022/06/29 10:10:1333.376N116.384W7.07 13 km ( 8 mi) N of Borrego Springs, CA
map1.02022/06/29 10:07:2138.504N119.513W7.2 34 km (21 mi) SSW of Smith Valley, NV
map0.52022/06/29 10:04:1138.823N122.793W3.31 6 km ( 4 mi) NNW of The Geysers, CA
map1.02022/06/29 09:52:2436.132N118.071W2.82 15 km ( 9 mi) NW of Coso Junction, CA
map1.02022/06/29 09:48:5838.557N122.654W-0.58 38 km (24 mi) SW of Quarry near Knoxville, CA (Probable quarry explosion)
map0.82022/06/29 09:47:4740.194N119.787W3.6 59 km (37 mi) NNE of Cold Springs, NV
map0.82022/06/29 09:39:3333.985N116.659W17.21 10 km ( 6 mi) SW of Morongo Valley, CA
map0.12022/06/29 09:18:4338.046N118.720W11.5 51 km (32 mi) NNE of Mammoth Lakes, CA
map1.52022/06/29 09:06:2036.892N121.619W-0.12 2 km ( 1 mi) SSE of Quarry near Logan (Watsonville), CA(Probable quarry explosion)
map0.52022/06/29 09:05:2733.441N116.641W4.93 13 km ( 8 mi) SSE of Anza, CA
map0.92022/06/29 08:47:4438.473N117.909W0.0 62 km (39 mi) E of Hawthorne, NV
map2.72022/06/29 08:37:3934.336N119.205W10.28 7 km ( 4 mi) NNE of Ventura, CA
map1.72022/06/29 08:13:0233.255N116.069W10.95 12 km ( 7 mi) WSW of Salton City, CA
map0.52022/06/29 08:04:0038.791N122.785W3.37 3 km ( 2 mi) WNW of The Geysers, CA
map0.82022/06/29 07:52:3735.708N117.572W10.53 13 km ( 8 mi) NE of Ridgecrest, CA
map0.72022/06/29 07:35:1538.798N122.739W1.33 3 km ( 2 mi) NNE of The Geysers, CA
map0.42022/06/29 07:28:2838.815N122.816W3.16 7 km ( 4 mi) NW of The Geysers, CA
map1.02022/06/29 07:20:4838.042N118.749W2.9 49 km (31 mi) NNE of Mammoth Lakes, CA
map0.52022/06/29 07:18:5838.041N118.739W7.8 50 km (31 mi) NNE of Mammoth Lakes, CA
map1.52022/06/29 07:15:1736.629N120.910W2.91 44 km (27 mi) ENE of Soledad, CA
MAP3.52022/06/29 07:08:0440.367N125.581W9.62114 km (71 mi) W of Ferndale, CA
map1.42022/06/29 06:59:3934.720N116.305W7.42 13 km ( 8 mi) W of Ludlow, CA
map1.22022/06/29 06:50:5640.200N119.782W5.3 60 km (37 mi) NNE of Cold Springs, NV
map1.02022/06/29 06:50:2538.829N122.757W0.34 3 km ( 2 mi) WNW of Cobb, CA
map0.32022/06/29 06:42:2337.598N119.008W1.81 5 km ( 3 mi) SSW of Mammoth Lakes, CA
map1.02022/06/29 06:40:3638.776N122.724W1 3 km ( 2 mi) E of The Geysers, CA
map0.82022/06/29 06:18:1338.823N122.804W2.57 7 km ( 4 mi) NW of The Geysers, CA
map0.82022/06/29 06:12:4137.155N115.384W5.3 30 km (19 mi) SW of Alamo, NV
map-0.12022/06/29 06:07:1537.390N117.089W0.0 61 km (38 mi) NNW of Beatty, NV
map0.92022/06/29 05:39:5438.832N122.756W1.2 3 km ( 2 mi) WNW of Cobb, CA
map0.32022/06/29 05:31:3938.067N118.686W9.2 51 km (32 mi) S of Hawthorne, NV
map0.72022/06/29 05:27:4833.494N116.975W7.49 12 km ( 7 mi) WNW of Aguanga, CA
map1.72022/06/29 05:22:3739.382N122.901W5.27 24 km (15 mi) N of Upper Lake, CA
map0.12022/06/29 05:20:5938.334N118.581W9.4 22 km (13 mi) S of Hawthorne, NV
map0.92022/06/29 04:58:1538.817N122.761W1.89 3 km ( 2 mi) W of Cobb, CA
map0.82022/06/29 04:51:3938.282N119.058W0.0 47 km (29 mi) SW of Hawthorne, NV
map1.32022/06/29 04:46:4933.583N118.171W10.52 19 km (12 mi) SSW of Seal Beach, CA
map0.82022/06/29 04:42:3934.218N117.900W10.16 9 km ( 6 mi) N of Azusa, CA
map1.32022/06/29 04:35:2738.485N117.931W4.2 60 km (38 mi) E of Hawthorne, NV
map0.42022/06/29 04:29:4633.396N116.423W11.38 16 km (10 mi) NNW of Borrego Springs, CA
map0.72022/06/29 04:29:3033.391N116.420W13.3 16 km (10 mi) NNW of Borrego Springs, CA
map0.92022/06/29 04:29:0933.392N116.426W13.76 16 km (10 mi) NNW of Borrego Springs, CA
map0.22022/06/29 04:28:5733.392N116.419W12.66 16 km (10 mi) NNW of Borrego Springs, CA
map0.32022/06/29 04:28:3837.529N118.830W5.93 18 km (11 mi) SE of Mammoth Lakes, CA
map1.12022/06/29 04:16:3538.830N122.755W-0.06 3 km ( 2 mi) WNW of Cobb, CA
map1.52022/06/29 03:45:2838.829N122.754W0.01 3 km ( 2 mi) WNW of Cobb, CA
map1.52022/06/29 03:35:0638.037N118.729W9.01 50 km (31 mi) NNE of Mammoth Lakes, CA
map1.72022/06/29 03:31:3539.410N123.306W7.19 4 km ( 3 mi) E of Willits, CA
map0.72022/06/29 03:20:2138.066N118.731W0.0 52 km (32 mi) S of Hawthorne, NV
map0.82022/06/29 03:13:3438.048N118.721W13.9 51 km (32 mi) NNE of Mammoth Lakes, CA
map1.42022/06/29 02:54:3837.925N118.519W8.04 52 km (32 mi) NE of Mammoth Lakes, CA
map0.52022/06/29 02:32:4833.231N116.734W11.49 3 km ( 2 mi) ESE of Lake Henshaw, CA
map0.92022/06/29 02:31:4635.770N117.583W7.04 16 km (10 mi) W of Searles Valley, CA
map0.32022/06/29 02:31:1938.154N117.897W8.5 59 km (37 mi) W of Tonopah, NV
map1.82022/06/29 02:29:1839.382N122.900W-0.78 24 km (15 mi) N of Upper Lake, CA
map0.72022/06/29 02:27:0038.034N118.738W11.0 49 km (30 mi) NNE of Mammoth Lakes, CA
map0.92022/06/29 02:26:0235.916N117.732W9.61 16 km (10 mi) E of Little Lake, CA
map0.32022/06/29 02:25:3133.564N116.795W5.56 11 km ( 7 mi) W of Anza, CA
map-0.42022/06/29 02:22:4636.738N116.288W10.1 46 km (28 mi) ESE of Beatty, NV
map2.82022/06/29 02:10:1131.357N115.888W6.03 76 km (47 mi) ESE of Maneadero, B.C., MX
map0.02022/06/29 02:10:0933.508N116.681W12.69 5 km ( 3 mi) S of Anza, CA
map0.12022/06/29 02:06:0936.822N116.337W1.0 38 km (24 mi) ESE of Beatty, NV
map0.52022/06/29 02:00:0238.153N117.897W10.3 59 km (37 mi) W of Tonopah, NV
map1.12022/06/29 01:54:2933.433N116.621W6.1 14 km ( 9 mi) SSE of Anza, CA
map0.92022/06/29 01:42:2138.038N118.743W7.3 49 km (31 mi) NNE of Mammoth Lakes, CA
map0.82022/06/29 01:40:4638.055N118.751W7.5 51 km (31 mi) NNE of Mammoth Lakes, CA
map1.82022/06/29 01:37:2236.813N121.554W6.31 4 km ( 2 mi) SSW of San Juan Bautista, CA
map0.82022/06/29 01:26:1338.038N118.723W10.1 50 km (31 mi) NNE of Mammoth Lakes, CA
map1.52022/06/29 01:03:3834.803N118.884W14.38 3 km ( 2 mi) WNW of Gorman, CA
map0.92022/06/29 00:53:0238.792N122.776W-0.88 2 km ( 1 mi) NW of The Geysers, CA
map1.32022/06/29 00:52:3838.794N122.776W-0.21 3 km ( 2 mi) NW of The Geysers, CA
map1.62022/06/29 00:52:3638.793N122.777W0.19 2 km ( 2 mi) NW of The Geysers, CA
map1.42022/06/29 00:51:5538.747N116.122W5.7116 km (72 mi) SE of Austin, NV
map1.22022/06/29 00:50:2133.189N115.612W3.05 10 km ( 6 mi) WSW of Niland, CA
map0.72022/06/29 00:26:5638.148N117.886W8.8 58 km (36 mi) W of Tonopah, NV
map0.72022/06/29 00:19:5033.712N116.764W16.51 5 km ( 3 mi) SW of Idyllwild, CA
map0.92022/06/29 00:17:2938.832N122.822W2.13 8 km ( 5 mi) NW of The Geysers, CA
map2.12022/06/29 00:16:5237.642N119.768W24.29 17 km (11 mi) NE of Midpines, CA
map1.22022/06/29 00:14:5735.014N118.870W15.42 10 km ( 6 mi) NE of Grapevine, CA
map0.92022/06/29 00:06:2733.968N116.965W14.29 4 km ( 3 mi) NNE of Beaumont, CA
map0.42022/06/28 23:59:3637.630N118.873W0.25 9 km ( 6 mi) E of Mammoth Lakes, CA
map1.02022/06/28 23:57:4338.787N122.768W2.09 2 km ( 1 mi) NW of The Geysers, CA
map1.02022/06/28 23:53:5033.180N115.642W3.18 13 km ( 8 mi) WSW of Niland, CA
map1.12022/06/28 23:53:0133.287N115.961W5.87 1 km ( 1 mi) SSW of Salton City, CA
map1.22022/06/28 23:40:3835.510N118.384W8.52 13 km ( 8 mi) SE of Bodfish, CA
map0.32022/06/28 23:40:2238.173N117.879W8.2 58 km (36 mi) WNW of Tonopah, NV
map0.72022/06/28 23:40:0637.132N116.576W14.0 29 km (18 mi) NNE of Beatty, NV
map0.52022/06/28 23:30:3638.806N122.751W1.01 3 km ( 2 mi) SW of Cobb, CA
map0.62022/06/28 23:30:1533.233N116.778W11.38 2 km ( 1 mi) WSW of Lake Henshaw, CA
map0.82022/06/28 23:27:1338.821N122.757W0.24 3 km ( 2 mi) W of Cobb, CA
map0.22022/06/28 23:00:3238.724N118.807W10.8 27 km (17 mi) NW of Hawthorne, NV
map1.22022/06/28 22:57:3638.100N122.437W3.94 7 km ( 4 mi) ESE of Black Point-Green Point, CA
map0.92022/06/28 22:45:5838.708N118.807W9.1 26 km (16 mi) NW of Hawthorne, NV
map0.82022/06/28 22:40:4938.715N118.805W10.0 26 km (16 mi) NW of Hawthorne, NV
map0.72022/06/28 22:12:3833.265N116.047W5.39 9 km ( 6 mi) WSW of Salton City, CA
map-0.52022/06/28 22:09:4938.232N118.343W7.7 41 km (25 mi) SE of Hawthorne, NV
map1.82022/06/28 21:49:1933.184N115.611W2.5 11 km ( 7 mi) SW of Niland, CA
map1.92022/06/28 21:48:4433.185N115.608W2.81 10 km ( 6 mi) SW of Niland, CA
map1.22022/06/28 21:42:4433.174N116.422W13.2 10 km ( 6 mi) SSW of Borrego Springs, CA
map1.62022/06/28 21:39:3733.183N115.612W2.42 11 km ( 7 mi) SW of Niland, CA
map0.12022/06/28 21:35:1033.593N116.627W14.13 6 km ( 4 mi) NE of Anza, CA
map0.52022/06/28 21:29:5638.831N122.807W2.51 7 km ( 5 mi) W of Cobb, CA
map1.22022/06/28 21:23:3139.235N123.362W3.77 14 km ( 9 mi) WSW of Redwood Valley, CA
MAP3.02022/06/28 21:19:3633.181N115.607W2.96 10 km ( 7 mi) SW of Niland, CA
map1.62022/06/28 21:16:5533.184N115.607W2.55 10 km ( 6 mi) SW of Niland, CA
map1.82022/06/28 21:13:5733.185N115.608W2.51 10 km ( 6 mi) SW of Niland, CA
map0.82022/06/28 21:06:0133.167N116.101W8.88 4 km ( 2 mi) NE of Ocotillo Wells, CA
map1.82022/06/28 21:05:0533.166N116.104W10.06 4 km ( 2 mi) NE of Ocotillo Wells, CA
map0.82022/06/28 20:39:2538.162N117.901W4.9 60 km (37 mi) W of Tonopah, NV
map1.22022/06/28 20:35:0239.587N120.643W6.1 29 km (18 mi) SSW of Portola, CA
map0.72022/06/28 20:32:5433.171N116.389W11.58 10 km ( 6 mi) S of Borrego Springs, CA
map0.32022/06/28 20:29:0337.633N118.879W-0.12 9 km ( 5 mi) E of Mammoth Lakes, CA
map0.42022/06/28 20:22:3838.810N122.824W2.01 7 km ( 4 mi) WNW of The Geysers, CA
map1.02022/06/28 20:20:5538.570N119.496W6.8 27 km (17 mi) SSW of Smith Valley, NV
map1.12022/06/28 19:57:1638.828N122.756W0.25 3 km ( 2 mi) WNW of Cobb, CA
map0.42022/06/28 19:40:1938.824N122.844W1.89 9 km ( 6 mi) NW of The Geysers, CA
map0.52022/06/28 19:06:2933.508N116.549W13.3 13 km ( 8 mi) ESE of Anza, CA
map1.62022/06/28 18:43:2938.811N116.114W7.9112 km (70 mi) SE of Austin, NV
map0.22022/06/28 18:38:5337.629N118.873W0.11 9 km ( 6 mi) E of Mammoth Lakes, CA
map1.12022/06/28 18:02:3736.738N121.321W9 9 km ( 6 mi) SSE of Ridgemark, CA
map1.92022/06/28 17:56:4633.032N116.386W11.48 21 km (13 mi) ESE of Julian, CA
map1.02022/06/28 17:15:0139.197N123.452W4.62 22 km (13 mi) WNW of Ukiah, CA
map-0.12022/06/28 16:57:1038.789N122.766W2.86 2 km ( 1 mi) NNW of The Geysers, CA
map0.92022/06/28 16:54:5138.835N122.743W0.35 2 km ( 1 mi) NW of Cobb, CA
map0.62022/06/28 16:18:3738.676N122.811W7.64 9 km ( 6 mi) NE of Healdsburg, CA
map1.82022/06/28 16:18:3535.045N117.670W-0.79 2 km ( 1 mi) NNE of Quarry at BORON (Probable quarry explosion)
map0.82022/06/28 16:04:2634.157N116.428W10.41 5 km ( 3 mi) N of Yucca Valley, CA
map1.22022/06/28 15:42:0833.013N115.601W5.79 3 km ( 2 mi) SE of Westmorland, CA
map0.02022/06/28 15:19:3837.633N118.878W-0.34 9 km ( 6 mi) E of Mammoth Lakes, CA
map0.32022/06/28 15:11:4437.626N118.877W1.59 9 km ( 6 mi) E of Mammoth Lakes, CA
map0.62022/06/28 15:04:4138.837N122.743W0.29 2 km ( 1 mi) NW of Cobb, CA
map1.22022/06/28 15:02:4038.835N122.744W0.31 2 km ( 1 mi) NW of Cobb, CA
map1.42022/06/28 14:59:4835.760N117.564W7.64 15 km ( 9 mi) W of Searles Valley, CA
map1.02022/06/28 14:54:2133.240N116.751W8.09 1 km ( 1 mi) E of Lake Henshaw, CA
map1.42022/06/28 14:10:2034.043N116.902W18.48 13 km ( 8 mi) E of Yucaipa, CA
map1.02022/06/28 13:55:4636.638N121.272W7.93 21 km (13 mi) SSE of Ridgemark, CA
map0.32022/06/28 13:35:1733.439N116.614W4.83 14 km ( 9 mi) SSE of Anza, CA
map0.32022/06/28 13:24:3138.835N122.761W1.17 4 km ( 2 mi) WNW of Cobb, CA
map1.52022/06/28 13:17:2339.085N116.929W8.1 47 km (29 mi) SSE of Austin, NV
map0.72022/06/28 13:07:4438.849N122.777W1.05 6 km ( 3 mi) WNW of Cobb, CA
map1.42022/06/28 12:50:5033.875N117.843W9.09 3 km ( 2 mi) E of Placentia, CA
map0.42022/06/28 12:44:3638.819N122.824W1.98 7 km ( 5 mi) NW of The Geysers, CA
map0.52022/06/28 12:38:1738.817N122.782W1.34 5 km ( 3 mi) NNW of The Geysers, CA
map0.42022/06/28 12:38:1438.815N122.785W0.9 5 km ( 3 mi) NNW of The Geysers, CA
map1.02022/06/28 12:36:4033.853N117.486W-0.49 1 km ( 1 mi) ENE of Quarry at CORONA (Probable quarry explosion)
map1.02022/06/28 12:33:2636.567N121.426W-0.53 18 km (11 mi) NW of Quarry near Soledad, CA (Probable quarry explosion)
map0.82022/06/28 12:29:1633.976N116.799W18.99 7 km ( 4 mi) N of Cabazon, CA
map0.32022/06/28 12:23:2033.659N116.736W12.52 9 km ( 6 mi) S of Idyllwild, CA
map0.02022/06/28 12:20:4138.819N122.764W1.87 4 km ( 2 mi) W of Cobb, CA
map0.22022/06/28 12:06:3535.559N117.452W8.21 21 km (13 mi) ESE of Ridgecrest, CA
map0.82022/06/28 12:01:4837.918N121.954W-0.26 2 km ( 1 mi) SW of Quarry near Clayton, CA (Probable quarry explosion)
map1.32022/06/28 11:50:4138.678N122.810W7.88 9 km ( 6 mi) NE of Healdsburg, CA
map1.02022/06/28 11:46:1335.059N118.336W-1.01 2 km ( 1 mi) NW of Quarry at MOJAVE (Probable quarry explosion)
map0.92022/06/28 11:34:2438.789N122.761W1.53 1 km ( 1 mi) NNW of The Geysers, CA
map0.52022/06/28 11:23:4633.685N116.785W15.29 9 km ( 5 mi) SW of Idyllwild, CA
map0.62022/06/28 11:11:3233.510N116.546W13.47 13 km ( 8 mi) ESE of Anza, CA
map0.72022/06/28 11:11:2133.515N116.552W13.36 12 km ( 8 mi) ESE of Anza, CA
map0.92022/06/28 11:11:1433.190N116.002W7.1 13 km ( 8 mi) SSW of Salton City, CA
map0.52022/06/28 10:39:4738.825N122.799W2.96 6 km ( 4 mi) NW of The Geysers, CA
map0.52022/06/28 10:22:2836.090N117.872W4.03 8 km ( 5 mi) NE of Coso Junction, CA
map1.22022/06/28 10:18:1438.832N122.821W2.33 8 km ( 5 mi) NW of The Geysers, CA
map0.42022/06/28 10:09:3938.798N122.762W1.2 2 km ( 1 mi) NNW of The Geysers, CA
map0.32022/06/28 09:59:5438.837N122.791W2.43 6 km ( 4 mi) WNW of Cobb, CA
map2.22022/06/28 09:40:4338.170N117.893W10.3 59 km (37 mi) W of Tonopah, NV
map-0.12022/06/28 09:01:5838.830N122.761W2.09 3 km ( 2 mi) WNW of Cobb, CA
map0.82022/06/28 08:23:3538.812N122.792W2.84 5 km ( 3 mi) NW of The Geysers, CA
map1.12022/06/28 07:26:0238.169N117.897W8.8 59 km (37 mi) W of Tonopah, NV
map1.52022/06/28 07:13:4838.171N117.834W7.7 54 km (34 mi) WNW of Tonopah, NV
map0.92022/06/28 06:49:0338.823N122.756W0.34 3 km ( 2 mi) W of Cobb, CA
map0.22022/06/28 06:39:3333.685N116.711W15.88 6 km ( 4 mi) S of Idyllwild, CA
map0.52022/06/28 06:23:4538.838N122.794W2.57 6 km ( 4 mi) WNW of Cobb, CA
map1.22022/06/28 06:22:5938.173N117.828W8.2 54 km (33 mi) WNW of Tonopah, NV
map1.42022/06/28 06:19:2038.177N117.826W6.4 53 km (33 mi) WNW of Tonopah, NV
map1.82022/06/28 06:16:4635.816N121.451W0.75 44 km (27 mi) NW of Cambria, CA
map1.02022/06/28 05:50:5638.836N122.745W0.96 2 km ( 2 mi) NW of Cobb, CA
map1.02022/06/28 05:49:0638.830N122.756W1.1 3 km ( 2 mi) WNW of Cobb, CA
map0.72022/06/28 05:29:1138.835N122.748W0.51 3 km ( 2 mi) NW of Cobb, CA
map1.62022/06/28 05:27:2938.836N122.744W0.67 2 km ( 1 mi) NW of Cobb, CA
map0.72022/06/28 05:25:3034.190N117.092W6.37 3 km ( 2 mi) SE of Running Springs, CA
map1.12022/06/28 05:23:3438.837N122.755W0.75 3 km ( 2 mi) WNW of Cobb, CA
map0.42022/06/28 05:22:4038.827N122.800W2.2 7 km ( 4 mi) W of Cobb, CA
map0.52022/06/28 05:20:4938.828N122.761W0.18 3 km ( 2 mi) W of Cobb, CA
map1.02022/06/28 05:17:3138.837N122.742W1.05 2 km ( 1 mi) NW of Cobb, CA
map1.22022/06/28 05:13:4738.840N122.747W0.8 3 km ( 2 mi) NW of Cobb, CA
map0.82022/06/28 05:10:1638.840N122.746W-0.33 3 km ( 2 mi) NW of Cobb, CA
map0.22022/06/28 05:10:1433.597N116.731W12.67 7 km ( 4 mi) NW of Anza, CA
map0.72022/06/28 05:09:5938.802N122.788W-0.25 4 km ( 2 mi) NW of The Geysers, CA
map0.52022/06/28 05:07:0733.230N116.733W12 3 km ( 2 mi) ESE of Lake Henshaw, CA
map1.62022/06/28 05:06:1438.846N122.738W1.13 3 km ( 2 mi) NNW of Cobb, CA
map1.72022/06/28 05:06:1238.842N122.752W1.01 3 km ( 2 mi) NW of Cobb, CA
map1.22022/06/28 05:05:4638.840N122.747W0.68 3 km ( 2 mi) NW of Cobb, CA
map0.72022/06/28 05:05:0338.846N122.759W1.62 4 km ( 3 mi) NW of Cobb, CA
map0.92022/06/28 05:04:4838.843N122.753W0.66 4 km ( 2 mi) NW of Cobb, CA
map2.12022/06/28 05:04:2638.839N122.742W0.49 2 km ( 2 mi) NW of Cobb, CA
map0.52022/06/28 05:03:1338.828N122.752W1.16 3 km ( 2 mi) WNW of Cobb, CA
map1.12022/06/28 05:02:5238.827N122.756W0.06 3 km ( 2 mi) W of Cobb, CA
map1.02022/06/28 05:02:1238.839N122.746W0.99 3 km ( 2 mi) NW of Cobb, CA
map1.12022/06/28 05:01:2238.836N122.745W0.74 2 km ( 2 mi) NW of Cobb, CA
map1.52022/06/28 05:00:4238.803N122.736W0.36 2 km ( 1 mi) SSW of Cobb, CA
map0.32022/06/28 05:00:2638.830N122.754W0.66 3 km ( 2 mi) WNW of Cobb, CA
map1.52022/06/28 04:59:4938.832N122.748W-0.13 2 km ( 1 mi) WNW of Cobb, CA
MAP4.22022/06/28 04:57:4038.830N122.747W0.48 2 km ( 1 mi) WNW of Cobb, CA
map0.52022/06/28 04:55:5238.830N122.751W0.78 3 km ( 2 mi) WNW of Cobb, CA
map0.62022/06/28 04:44:2433.344N116.807W9.35 5 km ( 3 mi) ESE of Palomar Observatory, CA
map0.92022/06/28 04:43:2633.248N116.112W9.57 12 km ( 7 mi) N of Ocotillo Wells, CA
map1.32022/06/28 04:34:2533.770N117.865W15.37 4 km ( 2 mi) NNE of Santa Ana, CA
map1.02022/06/28 04:31:4637.357N121.715W8.54 9 km ( 6 mi) ESE of East Foothills, CA
map0.92022/06/28 04:25:5937.355N121.713W8.6 10 km ( 6 mi) ESE of East Foothills, CA
map1.12022/06/28 04:20:1237.356N121.715W8.69 10 km ( 6 mi) ESE of East Foothills, CA
map0.82022/06/28 04:18:2538.177N117.823W7.9 53 km (33 mi) WNW of Tonopah, NV
map1.62022/06/28 04:07:0837.151N121.539W5.78 10 km ( 6 mi) NE of San Martin, CA
map1.22022/06/28 03:03:1638.836N122.792W2.2 6 km ( 4 mi) WNW of Cobb, CA
map0.72022/06/28 02:35:1238.833N122.807W2.14 7 km ( 5 mi) W of Cobb, CA
map0.72022/06/28 02:35:1037.526N118.793W5.82 21 km (13 mi) SE of Mammoth Lakes, CA
map2.12022/06/28 02:30:3239.091N117.020W8.0 45 km (28 mi) S of Austin, NV
map1.02022/06/28 01:55:1338.794N122.941W4.12 7 km ( 4 mi) E of Cloverdale, CA
map0.52022/06/28 01:45:4438.829N122.802W2.19 7 km ( 4 mi) W of Cobb, CA
map1.62022/06/28 01:39:0939.487N123.096W2.1 24 km (15 mi) ENE of Willits, CA
map0.92022/06/28 01:37:1338.834N122.807W2.08 7 km ( 5 mi) W of Cobb, CA
map0.72022/06/28 01:23:2438.791N122.733W1.77 3 km ( 2 mi) NE of The Geysers, CA
map0.82022/06/28 01:22:5138.792N122.733W-0.39 3 km ( 2 mi) NE of The Geysers, CA
map1.12022/06/28 01:20:3832.650N115.733W8.54 16 km (10 mi) WNW of Progreso, B.C., MX
map1.52022/06/28 01:19:5537.488N118.838W3.07 21 km (13 mi) SE of Mammoth Lakes, CA
map0.22022/06/28 01:11:3033.527N116.734W4.26 6 km ( 4 mi) WSW of Anza, CA
map1.72022/06/28 01:05:2638.175N117.820W8.4 53 km (33 mi) WNW of Tonopah, NV
map1.22022/06/28 00:30:5638.703N116.115W1.1120 km (75 mi) NE of Tonopah, NV
map1.02022/06/28 00:25:1535.946N117.667W3.28 22 km (13 mi) E of Little Lake, CA
map0.72022/06/28 00:16:4735.673N117.485W4.47 13 km ( 8 mi) SW of Searles Valley, CA
map0.72022/06/27 23:57:5136.096N117.878W5.39 8 km ( 5 mi) NE of Coso Junction, CA
map0.62022/06/27 23:49:1833.140N116.640W5.39 8 km ( 5 mi) NNW of Julian, CA
map1.32022/06/27 23:33:0938.755N116.119W8.7116 km (72 mi) SE of Austin, NV
map0.72022/06/27 23:04:4835.977N117.668W2.97 22 km (14 mi) ENE of Little Lake, CA
map0.42022/06/27 22:59:2638.837N122.812W1.83 8 km ( 5 mi) WNW of Cobb, CA
map0.62022/06/27 22:54:5038.855N118.517W13.5 38 km (24 mi) NNE of Hawthorne, NV
map1.22022/06/27 22:41:2535.606N117.589W4.06 8 km ( 5 mi) ESE of Ridgecrest, CA
map0.62022/06/27 22:14:4637.635N118.870W-0.16 10 km ( 6 mi) E of Mammoth Lakes, CA
map1.72022/06/27 22:06:0638.172N117.825W8.2 53 km (33 mi) WNW of Tonopah, NV
map-0.12022/06/27 21:59:5536.703N116.331W8.3 44 km (27 mi) ESE of Beatty, NV
map1.22022/06/27 21:51:3439.415N123.307W7.96 4 km ( 3 mi) E of Willits, CA
map1.22022/06/27 21:41:5638.641N116.063W13.4120 km (75 mi) ENE of Tonopah, NV
map1.92022/06/27 21:33:5435.707N117.504W7.63 11 km ( 7 mi) SW of Searles Valley, CA
map1.52022/06/27 21:30:2732.650N115.732W7.86 16 km (10 mi) WNW of Progreso, B.C., MX
map2.02022/06/27 21:23:4338.858N116.040W9.2110 km (68 mi) WSW of Ely, NV
map-0.02022/06/27 21:23:0938.782N122.766W2.05 1 km ( 1 mi) WNW of The Geysers, CA
map1.82022/06/27 21:18:2135.646N117.430W10.68 14 km ( 9 mi) S of Searles Valley, CA
map1.12022/06/27 21:13:0134.426N119.125W14.53 10 km ( 6 mi) NW of Santa Paula, CA
map0.62022/06/27 21:10:1733.597N116.623W13.39 7 km ( 4 mi) NE of Anza, CA
map0.12022/06/27 21:04:5933.492N116.757W6.13 10 km ( 7 mi) SW of Anza, CA
map0.62022/06/27 21:00:4338.788N122.768W2.52 2 km ( 1 mi) NW of The Geysers, CA
map1.42022/06/27 20:20:4336.974N117.567W2.1 56 km (35 mi) NW of Stovepipe Wells, CA
map2.02022/06/27 20:08:5738.715N116.093W2.8121 km (75 mi) SE of Austin, NV
map1.02022/06/27 19:54:4337.503N118.831W5.12 20 km (12 mi) SE of Mammoth Lakes, CA
map0.32022/06/27 19:53:0937.626N118.878W0.54 9 km ( 6 mi) E of Mammoth Lakes, CA
map0.42022/06/27 19:02:4338.822N122.794W2.66 6 km ( 4 mi) NNW of The Geysers, CA
map0.92022/06/27 18:30:2938.835N122.812W1.76 8 km ( 5 mi) W of Cobb, CA
map0.22022/06/27 18:16:4438.793N122.724W2.16 3 km ( 2 mi) S of Cobb, CA
map0.72022/06/27 18:15:5638.793N122.722W2.19 3 km ( 2 mi) S of Cobb, CA
map0.12022/06/27 18:06:4337.587N118.842W2.49 13 km ( 8 mi) ESE of Mammoth Lakes, CA
map0.42022/06/27 18:03:1933.350N116.336W12.6 11 km ( 7 mi) NNE of Borrego Springs, CA
map1.52022/06/27 17:58:4939.882N120.765W11.9 13 km ( 8 mi) ESE of East Quincy, CA
map1.12022/06/27 17:42:4738.457N119.573W0.0 41 km (26 mi) SSW of Smith Valley, NV
map0.12022/06/27 17:33:4833.709N117.465W2.58 12 km ( 8 mi) ENE of Trabuco Canyon, CA
map0.72022/06/27 17:15:4838.836N122.791W1.93 6 km ( 4 mi) WNW of Cobb, CA
map0.02022/06/27 17:12:5937.199N115.946W5.2 72 km (44 mi) WSW of Alamo, NV
map1.42022/06/27 16:46:1235.030N117.679W-0.82 0 km ( 0 mi) ESE of Quarry at BORON (Probable quarry explosion)
map0.42022/06/27 16:20:3538.791N122.765W2.72 2 km ( 1 mi) NNW of The Geysers, CA
map0.62022/06/27 16:14:2136.011N117.806W1.84 12 km ( 8 mi) NE of Little Lake, CA
map0.62022/06/27 16:14:0735.982N117.747W5.3 15 km ( 9 mi) ENE of Little Lake, CA
map1.32022/06/27 16:05:3938.844N122.816W1.43 8 km ( 5 mi) WNW of Cobb, CA
map1.52022/06/27 15:32:0440.477N124.320W18.52 12 km ( 7 mi) SSW of Ferndale, CA
map0.92022/06/27 15:27:2633.230N116.726W11.43 4 km ( 2 mi) ESE of Lake Henshaw, CA
map0.62022/06/27 15:24:1833.232N116.734W11.54 3 km ( 2 mi) ESE of Lake Henshaw, CA
map0.72022/06/27 15:19:4838.816N122.762W1.92 3 km ( 2 mi) W of Cobb, CA
map0.92022/06/27 15:14:4938.834N122.818W1.7 8 km ( 5 mi) NW of The Geysers, CA
map0.82022/06/27 15:08:0033.952N116.757W17.54 5 km ( 3 mi) NE of Cabazon, CA
map0.42022/06/27 15:05:3138.794N122.779W3.72 3 km ( 2 mi) NW of The Geysers, CA
map0.82022/06/27 14:46:4735.852N121.326W8.39 39 km (24 mi) NW of Cambria, CA
map0.92022/06/27 14:42:2538.835N122.807W2.08 7 km ( 5 mi) WNW of Cobb, CA
map0.72022/06/27 14:39:5738.160N117.927W11.0 62 km (38 mi) W of Tonopah, NV
map1.62022/06/27 13:58:2833.232N116.739W11.37 2 km ( 2 mi) ESE of Lake Henshaw, CA
map1.52022/06/27 13:55:4435.852N121.324W9.89 39 km (24 mi) NW of Cambria, CA
map1.32022/06/27 13:54:2238.176N118.153W9.7 56 km (35 mi) SE of Hawthorne, NV
map1.22022/06/27 13:35:1738.254N118.351W9.0 38 km (24 mi) SE of Hawthorne, NV
map0.92022/06/27 13:29:2637.632N118.873W0.17 9 km ( 6 mi) E of Mammoth Lakes, CA
map1.02022/06/27 13:26:2536.034N117.830W2.07 11 km ( 7 mi) E of Coso Junction, CA
map0.22022/06/27 13:05:0937.589N118.820W1.61 15 km ( 9 mi) ESE of Mammoth Lakes, CA
map0.22022/06/27 13:02:1237.566N118.858W4.8 13 km ( 8 mi) SE of Mammoth Lakes, CA
map0.42022/06/27 12:57:2238.797N122.763W2.92 2 km ( 1 mi) NNW of The Geysers, CA
map2.12022/06/27 12:51:3135.653N117.458W1.33 14 km ( 8 mi) SSW of Searles Valley, CA
map0.32022/06/27 12:33:1937.632N118.874W0.45 9 km ( 6 mi) E of Mammoth Lakes, CA
map1.22022/06/27 12:31:2136.814N121.532W5.67 4 km ( 2 mi) S of San Juan Bautista, CA
map0.62022/06/27 12:11:5337.634N118.876W-0.14 9 km ( 6 mi) E of Mammoth Lakes, CA
map0.92022/06/27 12:11:2738.833N122.811W1.9 8 km ( 5 mi) W of Cobb, CA
map1.52022/06/27 11:59:0233.821N117.482W-0.66 4 km ( 2 mi) SSE of Quarry at CORONA (Probable quarry explosion)
map1.12022/06/27 11:58:4232.676N115.443W16.13 4 km ( 2 mi) NE of Mexicali, B.C., MX
map1.32022/06/27 11:54:3634.995N118.187W-0.8 2 km ( 1 mi) SW of Quarry at TPO-DBM (Probable quarry explosion)
map0.92022/06/27 11:34:3438.791N122.812W3.49 5 km ( 3 mi) WNW of The Geysers, CA
map0.42022/06/27 11:24:2533.589N116.803W7.56 13 km ( 8 mi) WNW of Anza, CA
map0.52022/06/27 11:17:5538.839N122.778W2.1 5 km ( 3 mi) WNW of Cobb, CA
map1.32022/06/27 11:15:0732.651N115.732W9.32 16 km (10 mi) WNW of Progreso, B.C., MX
map0.12022/06/27 11:13:3438.455N118.419W13.0 19 km (12 mi) ESE of Hawthorne, NV
map1.62022/06/27 11:12:4633.061N115.010W-0.2 1 km ( 1 mi) W of Quarry at RUN (Probable quarry explosion)
map1.12022/06/27 10:46:1836.184N118.005W3.8 11 km ( 7 mi) S of Olancha, CA
map0.92022/06/27 10:34:2037.503N121.621W6.95 22 km (14 mi) NE of East Foothills, CA
map0.22022/06/27 10:14:4338.771N122.712W1.59 4 km ( 2 mi) E of The Geysers, CA
map0.22022/06/27 10:09:3438.772N122.712W1.79 4 km ( 2 mi) E of The Geysers, CA
map0.72022/06/27 10:08:5438.770N122.714W1.2 4 km ( 2 mi) ESE of The Geysers, CA
map0.62022/06/27 09:48:0140.105N119.476W10.1 54 km (34 mi) NNE of Spanish Springs, NV
map1.62022/06/27 09:47:1237.563N118.862W3.81 13 km ( 8 mi) SE of Mammoth Lakes, CA
map0.62022/06/27 09:45:5035.888N117.734W8.24 16 km (10 mi) ESE of Little Lake, CA
map0.62022/06/27 09:43:5533.685N116.786W14.43 9 km ( 5 mi) SW of Idyllwild, CA
map0.02022/06/27 09:39:5737.574N118.870W0.2 12 km ( 7 mi) SE of Mammoth Lakes, CA
map0.42022/06/27 09:37:3233.545N116.424W9.44 17 km (11 mi) SW of La Quinta, CA
map1.62022/06/27 08:59:4035.971N120.523W10.41 12 km ( 7 mi) NW of Parkfield, CA
map0.92022/06/27 08:55:5233.263N116.097W6.4 14 km ( 8 mi) WSW of Salton City, CA
map0.32022/06/27 08:55:0935.892N120.440W4.83 1 km ( 1 mi) SW of Parkfield, CA
map0.42022/06/27 08:49:3538.826N122.770W1.79 4 km ( 3 mi) W of Cobb, CA
map0.12022/06/27 08:33:0338.781N122.723W1.63 3 km ( 2 mi) E of The Geysers, CA
map1.72022/06/27 08:15:4238.780N122.727W1.45 3 km ( 2 mi) E of The Geysers, CA
map1.62022/06/27 08:02:3039.146N123.115W8.18 5 km ( 3 mi) ENE of Talmage, CA
map2.62022/06/27 07:44:4240.602N123.219W28.06 6 km ( 4 mi) NNW of Hayfork, CA
map0.12022/06/27 07:25:2533.590N116.805W7.78 13 km ( 8 mi) WNW of Anza, CA
map0.62022/06/27 07:12:5635.888N117.737W8.82 16 km (10 mi) ESE of Little Lake, CA
map1.22022/06/27 07:07:2535.871N117.680W8.34 22 km (13 mi) ESE of Little Lake, CA
map0.82022/06/27 06:52:0738.796N122.780W3.1 3 km ( 2 mi) NW of The Geysers, CA
map0.92022/06/27 06:51:3136.099N117.799W8.43 15 km ( 9 mi) ENE of Coso Junction, CA
map0.32022/06/27 06:32:3440.130N119.642W13.1 54 km (33 mi) N of Spanish Springs, NV
map1.72022/06/27 06:26:4233.108N115.627W8.97 8 km ( 5 mi) N of Westmorland, CA
map1.02022/06/27 06:17:0038.532N119.403W2.6 29 km (18 mi) S of Smith Valley, NV
map0.62022/06/27 06:11:1735.892N117.716W10.29 18 km (11 mi) ESE of Little Lake, CA
map0.92022/06/27 06:10:4338.822N122.807W2.63 7 km ( 4 mi) NW of The Geysers, CA
map1.32022/06/27 06:02:3038.788N122.762W1.4 1 km ( 1 mi) NNW of The Geysers, CA
map0.72022/06/27 05:49:5238.830N122.811W2.1 7 km ( 5 mi) NW of The Geysers, CA
map1.42022/06/27 05:43:5434.377N116.991W8.91 8 km ( 5 mi) SSW of Lucerne Valley, CA
map-0.42022/06/27 05:41:5338.575N118.502W6.2 12 km ( 7 mi) ENE of Hawthorne, NV
map-0.02022/06/27 05:24:5638.794N122.749W2.47 2 km ( 1 mi) NNE of The Geysers, CA
map0.92022/06/27 05:23:1237.907N122.198W4.43 4 km ( 2 mi) NNW of Orinda, CA
map1.42022/06/27 05:09:1933.384N116.881W5.53 4 km ( 2 mi) NNW of Palomar Observatory, CA
map0.72022/06/27 05:06:3733.824N117.740W8.3 7 km ( 4 mi) E of Villa Park, CA
map0.42022/06/27 04:58:2938.044N118.781W9.4 48 km (30 mi) NNE of Mammoth Lakes, CA
map0.62022/06/27 04:34:2433.492N116.445W7.3 22 km (14 mi) ESE of Anza, CA
map1.32022/06/27 04:32:5736.269N120.843W6.54 26 km (16 mi) ENE of King City, CA
map0.72022/06/27 04:31:0633.774N116.123W2.31 10 km ( 6 mi) NE of Indio, CA
map-0.22022/06/27 04:12:1537.492N117.270W8.6 64 km (40 mi) S of Tonopah, NV
map0.22022/06/27 04:02:1036.333N116.325W4.8 31 km (19 mi) WNW of Pahrump, NV
map1.52022/06/27 03:49:0835.015N119.069W19.36 15 km ( 9 mi) WNW of Grapevine, CA
map0.72022/06/27 03:29:5433.725N116.838W15.35 6 km ( 4 mi) ESE of Valle Vista, CA
map0.42022/06/27 03:29:3833.732N116.831W15.42 6 km ( 4 mi) ESE of Valle Vista, CA
map1.02022/06/27 03:25:4233.686N116.711W15.11 6 km ( 4 mi) S of Idyllwild, CA
map-0.12022/06/27 03:12:0040.075N119.508W0.0 50 km (31 mi) NNE of Spanish Springs, NV
map0.22022/06/27 02:55:2238.797N122.748W2.37 2 km ( 1 mi) NNE of The Geysers, CA
map1.62022/06/27 02:18:3635.878N117.680W8.58 21 km (13 mi) ESE of Little Lake, CA
map1.42022/06/27 02:16:5938.406N122.597W5.7 5 km ( 3 mi) W of Kenwood, CA
map0.12022/06/27 01:58:3436.953N116.039W9.7 64 km (40 mi) E of Beatty, NV
map0.52022/06/27 01:56:0633.488N116.757W7.31 11 km ( 7 mi) SW of Anza, CA
map0.52022/06/27 01:54:4833.238N116.751W8.5 1 km ( 1 mi) ESE of Lake Henshaw, CA
map0.92022/06/27 01:36:1938.835N122.805W1.99 7 km ( 5 mi) WNW of Cobb, CA
map0.42022/06/27 01:28:1038.798N122.817W3.29 6 km ( 4 mi) WNW of The Geysers, CA
map1.72022/06/27 01:24:4433.479N116.523W12.33 16 km (10 mi) ESE of Anza, CA
map0.62022/06/27 01:19:5033.501N116.783W7.11 10 km ( 6 mi) NE of Aguanga, CA
map1.22022/06/27 00:55:2838.160N118.244W7.6 52 km (33 mi) SE of Hawthorne, NV
map0.62022/06/27 00:46:4038.788N122.770W1.96 2 km ( 1 mi) NW of The Geysers, CA
map-0.22022/06/27 00:44:1137.029N117.492W0.0 56 km (35 mi) NNW of Stovepipe Wells, CA
map2.12022/06/26 23:51:2732.645N115.721W9.34 15 km ( 9 mi) WNW of Progreso, B.C., MX
map0.62022/06/26 23:46:2438.097N118.254W6.0 58 km (36 mi) SE of Hawthorne, NV
map1.72022/06/26 23:43:4138.793N122.747W2.01 2 km ( 1 mi) NNE of The Geysers, CA
map1.02022/06/26 23:33:1635.867N117.666W7.56 23 km (14 mi) ESE of Little Lake, CA
map1.12022/06/26 23:28:5835.650N117.476W3.49 15 km ( 9 mi) SSW of Searles Valley, CA
map0.52022/06/26 23:21:0038.833N122.801W2.33 7 km ( 4 mi) W of Cobb, CA
map0.72022/06/26 23:17:3638.768N122.712W1.35 4 km ( 2 mi) ESE of The Geysers, CA
map-0.32022/06/26 23:14:3836.700N116.332W8.2 44 km (27 mi) ESE of Beatty, NV
map1.22022/06/26 23:03:2840.562N122.246W14.08 1 km ( 0 mi) WSW of Palo Cedro, CA
map-0.52022/06/26 23:00:0336.696N116.328W7.6 45 km (28 mi) ESE of Beatty, NV
map0.52022/06/26 22:34:5735.802N117.626W6.81 20 km (13 mi) W of Searles Valley, CA
map-0.52022/06/26 21:38:2436.736N116.207W5.3 52 km (33 mi) ESE of Beatty, NV
map1.22022/06/26 21:35:5832.653N115.727W8.99 16 km (10 mi) WNW of Progreso, B.C., MX
map0.92022/06/26 21:14:4138.151N117.991W7.8 67 km (42 mi) W of Tonopah, NV
map2.32022/06/26 21:13:2333.841N118.529W10.77 12 km ( 7 mi) WSW of Manhattan Beach, CA
map0.22022/06/26 21:06:1733.596N116.802W8.11 13 km ( 8 mi) WNW of Anza, CA
map0.12022/06/26 20:59:5533.655N116.707W14.82 10 km ( 6 mi) S of Idyllwild, CA
map0.42022/06/26 20:59:5033.657N116.712W15.19 9 km ( 6 mi) S of Idyllwild, CA
map1.22022/06/26 20:34:0137.109N121.489W2.12 11 km ( 7 mi) ENE of San Martin, CA
map0.82022/06/26 20:13:4338.825N122.804W2.68 7 km ( 4 mi) NW of The Geysers, CA
map2.22022/06/26 19:51:3836.545N121.081W8.24 26 km (16 mi) ENE of Soledad, CA
map-0.32022/06/26 19:40:0837.171N117.011W0.0 37 km (23 mi) NW of Beatty, NV
map1.42022/06/26 19:09:1038.174N118.156W8.6 56 km (35 mi) SE of Hawthorne, NV
map1.12022/06/26 19:07:5635.065N118.319W3.7 13 km ( 8 mi) W of Mojave, CA
map0.82022/06/26 19:05:0733.824N116.177W6.62 12 km ( 7 mi) NNE of Indio, CA
map0.82022/06/26 18:46:4737.629N118.874W0.25 9 km ( 6 mi) E of Mammoth Lakes, CA
map2.22022/06/26 18:03:3232.647N115.724W9.58 15 km ( 9 mi) WNW of Progreso, B.C., MX
map0.72022/06/26 17:50:2538.123N118.220W0.0 57 km (35 mi) SE of Hawthorne, NV
map1.02022/06/26 17:36:5434.047N117.550W9.97 7 km ( 4 mi) NNW of Mira Loma, CA
map0.52022/06/26 17:34:1838.837N122.800W2.44 7 km ( 4 mi) WNW of Cobb, CA
map0.32022/06/26 17:30:5737.632N118.874W-0.3 9 km ( 6 mi) E of Mammoth Lakes, CA
map1.72022/06/26 17:30:1732.646N115.721W8.78 15 km ( 9 mi) WNW of Progreso, B.C., MX
map2.52022/06/26 17:27:0432.650N115.717W9.3 15 km ( 9 mi) WNW of Progreso, B.C., MX
map0.52022/06/26 16:59:2738.182N117.938W5.9 63 km (39 mi) WNW of Tonopah, NV
map0.72022/06/26 16:56:2235.776N117.588W8.34 17 km (10 mi) W of Searles Valley, CA
map0.82022/06/26 16:55:5135.989N117.432W2.8 25 km (15 mi) N of Searles Valley, CA
map1.82022/06/26 16:22:4435.044N117.669W-0.75 2 km ( 1 mi) NE of Quarry at BORON (Probable quarry explosion)
map0.52022/06/26 15:29:3533.501N116.785W7 10 km ( 6 mi) NE of Aguanga, CA
map1.22022/06/26 15:25:2840.571N122.249W13.07 1 km ( 1 mi) NW of Palo Cedro, CA
map1.02022/06/26 14:32:2235.971N120.531W9.96 12 km ( 7 mi) NW of Parkfield, CA
map2.22022/06/26 14:27:0334.852N118.967W12.06 4 km ( 2 mi) NNW of Frazier Park, CA
map1.22022/06/26 14:25:5138.501N119.518W4.7 35 km (22 mi) SSW of Smith Valley, NV
map0.72022/06/26 14:03:0038.822N122.804W2.55 6 km ( 4 mi) NW of The Geysers, CA
map0.82022/06/26 13:51:5338.802N122.782W2.36 4 km ( 2 mi) NW of The Geysers, CA
map1.02022/06/26 13:20:5338.139N118.005W6.3 68 km (42 mi) W of Tonopah, NV
map1.02022/06/26 13:18:0335.703N117.504W9.39 11 km ( 7 mi) SW of Searles Valley, CA
map1.42022/06/26 13:16:2233.989N118.345W10.58 1 km ( 0 mi) SSE of View Park-Windsor Hills, CA
map0.92022/06/26 12:53:2838.173N117.828W4.3 54 km (33 mi) WNW of Tonopah, NV
map0.92022/06/26 12:45:2735.849N117.683W9.9 22 km (14 mi) ESE of Little Lake, CA
map1.52022/06/26 12:37:0633.961N116.644W10.31 11 km ( 7 mi) SSW of Morongo Valley, CA
map0.72022/06/26 12:13:3037.575N118.846W3.44 14 km ( 8 mi) ESE of Mammoth Lakes, CA
map1.02022/06/26 11:56:5037.577N118.833W5.01 14 km ( 9 mi) ESE of Mammoth Lakes, CA
map0.72022/06/26 11:53:1638.174N117.825W7.1 53 km (33 mi) WNW of Tonopah, NV
map0.82022/06/26 11:44:1438.785N122.738W1.78 2 km ( 1 mi) ENE of The Geysers, CA
map0.32022/06/26 11:35:5138.762N122.724W1.88 3 km ( 2 mi) ESE of The Geysers, CA
map-0.32022/06/26 11:25:1235.577N117.440W8.77 21 km (13 mi) S of Searles Valley, CA
map2.12022/06/26 11:14:1735.974N120.526W10.24 12 km ( 7 mi) NW of Parkfield, CA
map1.02022/06/26 11:10:5536.625N121.241W3.18 22 km (14 mi) NE of Gonzales, CA
map1.12022/06/26 10:58:4937.628N118.871W0.05 10 km ( 6 mi) E of Mammoth Lakes, CA
map0.22022/06/26 10:57:3137.635N118.871W-1.9 10 km ( 6 mi) E of Mammoth Lakes, CA
map0.92022/06/26 10:55:5137.628N118.871W0.13 10 km ( 6 mi) E of Mammoth Lakes, CA
map1.42022/06/26 10:53:5437.626N118.870W0.17 10 km ( 6 mi) E of Mammoth Lakes, CA
map1.52022/06/26 10:52:3037.626N118.871W0.12 10 km ( 6 mi) E of Mammoth Lakes, CA
map1.62022/06/26 10:51:4337.626N118.871W0.04 10 km ( 6 mi) E of Mammoth Lakes, CA
map1.92022/06/26 10:50:1337.624N118.869W0.17 10 km ( 6 mi) E of Mammoth Lakes, CA
map1.82022/06/26 10:27:2834.475N118.989W11.18 11 km ( 7 mi) NW of Fillmore, CA
map2.02022/06/26 09:59:1634.480N118.980W10.29 11 km ( 7 mi) NNW of Fillmore, CA
map1.02022/06/26 09:47:5733.270N116.259W3.07 11 km ( 7 mi) E of Borrego Springs, CA
map2.22022/06/26 09:36:3533.837N118.534W12.89 13 km ( 8 mi) WSW of Manhattan Beach, CA
map0.72022/06/26 09:32:4136.021N117.889W5.7 6 km ( 4 mi) ESE of Coso Junction, CA
map0.62022/06/26 09:26:5435.813N117.637W6.18 22 km (13 mi) WNW of Searles Valley, CA
map0.62022/06/26 09:09:3837.624N118.872W-0.09 10 km ( 6 mi) E of Mammoth Lakes, CA
map1.22022/06/26 09:05:0638.833N122.817W1.96 8 km ( 5 mi) NW of The Geysers, CA
map0.92022/06/26 08:59:4638.841N122.824W1.71 9 km ( 6 mi) WNW of Cobb, CA
map1.62022/06/26 08:33:3832.651N115.716W9.08 15 km ( 9 mi) WNW of Progreso, B.C., MX
map0.52022/06/26 08:27:1338.795N122.751W2.6 2 km ( 1 mi) NNE of The Geysers, CA
map1.02022/06/26 08:10:4337.498N118.844W2.73 19 km (12 mi) SE of Mammoth Lakes, CA
map1.22022/06/26 08:05:3238.822N122.798W2.54 6 km ( 4 mi) NW of The Geysers, CA
map0.82022/06/26 07:54:3337.516N118.772W5.37 23 km (14 mi) SE of Mammoth Lakes, CA
map1.32022/06/26 07:48:1537.731N122.122W5.82 3 km ( 2 mi) ENE of San Leandro, CA
map0.82022/06/26 07:22:2337.626N118.871W0.04 10 km ( 6 mi) E of Mammoth Lakes, CA
map0.92022/06/26 07:13:4138.836N122.839W1.75 10 km ( 6 mi) NW of The Geysers, CA
map-0.32022/06/26 07:00:3737.601N118.850W-0.05 12 km ( 7 mi) ESE of Mammoth Lakes, CA
map0.52022/06/26 06:58:3337.544N118.805W6.9 18 km (11 mi) SE of Mammoth Lakes, CA
map1.52022/06/26 06:51:5934.023N116.773W18.18 12 km ( 7 mi) N of Cabazon, CA
map0.92022/06/26 06:45:4334.325N116.460W9.29 24 km (15 mi) N of Yucca Valley, CA
map0.42022/06/26 06:31:5638.835N122.791W2.33 6 km ( 4 mi) WNW of Cobb, CA
map1.12022/06/26 06:29:0335.880N117.695W4.7 20 km (12 mi) ESE of Little Lake, CA
map0.32022/06/26 06:21:1637.627N118.863W2.18 10 km ( 6 mi) E of Mammoth Lakes, CA
map1.72022/06/26 06:12:0232.934N115.528W6.92 5 km ( 3 mi) S of Brawley, CA
map0.92022/06/26 06:09:4337.627N118.869W0.05 10 km ( 6 mi) E of Mammoth Lakes, CA
map0.82022/06/26 06:07:5435.880N117.696W4.81 20 km (12 mi) ESE of Little Lake, CA
map0.12022/06/26 05:56:3538.836N122.794W2.38 6 km ( 4 mi) WNW of Cobb, CA
map0.52022/06/26 05:15:4834.579N117.780W9.92 6 km ( 4 mi) SE of Lake Los Angeles, CA
map-0.12022/06/26 05:08:2237.626N118.870W0.23 10 km ( 6 mi) E of Mammoth Lakes, CA
map1.92022/06/26 05:04:5639.318N116.705W0.0 37 km (23 mi) ESE of Austin, NV
map2.32022/06/26 05:02:5738.543N119.501W6.71 30 km (19 mi) SSW of Smith Valley, NV
map1.52022/06/26 04:59:2932.930N115.528W7.65 5 km ( 3 mi) S of Brawley, CA
map0.52022/06/26 04:56:5538.837N122.784W1.91 6 km ( 3 mi) WNW of Cobb, CA
map0.62022/06/26 04:49:3238.884N119.636W0.0 9 km ( 6 mi) E of Gardnerville Ranchos, NV
map0.72022/06/26 04:41:3234.007N116.681W13.33 10 km ( 6 mi) WSW of Morongo Valley, CA
map1.52022/06/26 04:39:3638.489N122.657W0.34 6 km ( 4 mi) NE of Santa Rosa, CA
map1.32022/06/26 04:30:5532.924N115.531W7.55 6 km ( 4 mi) S of Brawley, CA
map0.82022/06/26 04:16:1736.102N117.860W2.55 10 km ( 6 mi) NE of Coso Junction, CA
map1.22022/06/26 04:14:1036.704N121.384W-0.41 12 km ( 8 mi) S of Ridgemark, CA
map1.12022/06/26 04:13:5940.084N119.672W14.6 48 km (30 mi) N of Spanish Springs, NV
map0.32022/06/26 03:56:5137.628N118.869W-0.03 10 km ( 6 mi) E of Mammoth Lakes, CA
map1.12022/06/26 03:47:3533.979N117.476W2.85 0 km ( 0 mi) N of Pedley, CA
map0.52022/06/26 03:45:4933.980N117.490W3.16 1 km ( 1 mi) WNW of Pedley, CA
map1.42022/06/26 03:38:3637.629N118.871W0.12 10 km ( 6 mi) E of Mammoth Lakes, CA
map1.42022/06/26 03:35:1137.629N118.871W0.03 10 km ( 6 mi) E of Mammoth Lakes, CA
map1.12022/06/26 03:34:5237.626N118.872W0.29 9 km ( 6 mi) E of Mammoth Lakes, CA
map0.82022/06/26 03:24:0034.010N116.729W13.06 12 km ( 7 mi) NNE of Cabazon, CA
map0.72022/06/26 03:15:0138.521N119.532W3.1 33 km (21 mi) SSW of Smith Valley, NV
map2.92022/06/26 03:11:3540.907N127.157W9.62(not available)
map2.02022/06/26 02:47:3937.487N118.842W5.57 21 km (13 mi) SE of Mammoth Lakes, CA
map2.32022/06/26 02:45:0533.988N118.349W10.96 1 km ( 1 mi) S of View Park-Windsor Hills, CA
map2.22022/06/26 02:38:0737.503N118.841W6.63 19 km (12 mi) SE of Mammoth Lakes, CA
map0.72022/06/26 02:18:1533.334N116.773W18.59 9 km ( 5 mi) ESE of Palomar Observatory, CA
map0.52022/06/26 02:10:5938.784N122.751W0.32 1 km ( 1 mi) NE of The Geysers, CA
map0.42022/06/26 02:03:5733.434N116.618W5.3 14 km ( 9 mi) SSE of Anza, CA
map1.12022/06/26 02:03:0636.854N121.298W8.25 8 km ( 5 mi) NE of Ridgemark, CA
map-0.12022/06/26 02:01:2137.627N118.873W0.18 9 km ( 6 mi) E of Mammoth Lakes, CA
map1.02022/06/26 01:59:1137.629N118.871W0.18 10 km ( 6 mi) E of Mammoth Lakes, CA
map0.92022/06/26 01:58:0435.643N118.320W7.39 14 km ( 9 mi) ENE of Lake Isabella, CA
map1.52022/06/26 01:57:5137.629N118.872W0.14 9 km ( 6 mi) E of Mammoth Lakes, CA
map-0.32022/06/26 01:45:0937.633N118.873W-0.36 9 km ( 6 mi) E of Mammoth Lakes, CA
map-0.22022/06/26 01:44:3637.631N118.872W-0.19 9 km ( 6 mi) E of Mammoth Lakes, CA
map0.92022/06/26 01:22:0537.512N118.776W4.43 23 km (14 mi) SE of Mammoth Lakes, CA
map1.02022/06/26 01:07:1437.631N118.876W0.23 9 km ( 6 mi) E of Mammoth Lakes, CA
map0.82022/06/26 00:54:4233.467N116.451W7.28 23 km (14 mi) ESE of Anza, CA
map0.92022/06/26 00:51:0137.471N118.817W2.42 23 km (15 mi) SE of Mammoth Lakes, CA
map0.32022/06/26 00:29:0537.632N118.883W2.78 8 km ( 5 mi) E of Mammoth Lakes, CA
map1.62022/06/26 00:23:2437.498N118.774W4.66 24 km (15 mi) SE of Mammoth Lakes, CA
map0.32022/06/26 00:21:5237.634N118.873W0.02 9 km ( 6 mi) E of Mammoth Lakes, CA
map1.02022/06/26 00:12:1838.847N122.814W1.27 8 km ( 5 mi) WNW of Cobb, CA
map1.02022/06/26 00:11:5738.844N122.816W1.35 8 km ( 5 mi) WNW of Cobb, CA
map0.42022/06/26 00:11:2637.630N118.879W-0.2 9 km ( 6 mi) E of Mammoth Lakes, CA
map0.22022/06/26 00:08:1537.624N118.876W1.79 9 km ( 6 mi) E of Mammoth Lakes, CA
map0.92022/06/26 00:02:3336.291N115.442W2.8 22 km (13 mi) NNW of Summerlin South, NV
map0.32022/06/25 23:46:2439.968N119.939W7.5 32 km (20 mi) N of Cold Springs, NV
map1.22022/06/25 23:36:1836.036N120.597W3.88 21 km (13 mi) NW of Parkfield, CA
map0.42022/06/25 23:34:3238.833N122.820W1.91 8 km ( 5 mi) NW of The Geysers, CA
map2.52022/06/25 23:32:2532.703N115.448W11.9 5 km ( 3 mi) ENE of Calexico, CA
map1.32022/06/25 23:27:1437.632N118.875W0.23 9 km ( 6 mi) E of Mammoth Lakes, CA
map1.22022/06/25 23:16:5537.502N118.773W4.69 24 km (15 mi) SE of Mammoth Lakes, CA
map1.02022/06/25 23:16:2537.515N118.774W5.29 23 km (14 mi) SE of Mammoth Lakes, CA
map1.12022/06/25 22:47:0838.805N122.737W1.95 2 km ( 1 mi) SSW of Cobb, CA
map0.22022/06/25 22:45:2438.834N122.793W1.81 6 km ( 4 mi) WNW of Cobb, CA
map2.02022/06/25 22:34:3937.515N118.774W5.59 23 km (14 mi) SE of Mammoth Lakes, CA
map0.82022/06/25 22:22:2936.104N117.870W3.19 10 km ( 6 mi) NE of Coso Junction, CA
map1.32022/06/25 22:00:3036.067N117.867W2.12 8 km ( 5 mi) ENE of Coso Junction, CA
map1.32022/06/25 21:50:1435.383N118.630W4.44 26 km (16 mi) SSW of Bodfish, CA
map1.32022/06/25 21:38:2634.265N118.497W13.21 1 km ( 1 mi) SSE of Granada Hills, CA
map1.42022/06/25 21:38:2036.185N118.008W2.6 11 km ( 7 mi) S of Olancha, CA
map1.02022/06/25 21:35:1434.262N118.496W12.65 1 km ( 1 mi) SSE of Granada Hills, CA
map1.32022/06/25 21:33:3233.183N115.615W2.33 11 km ( 7 mi) SW of Niland, CA
map0.92022/06/25 21:08:4733.020N116.342W11.06 24 km (15 mi) SW of Ocotillo Wells, CA
map1.62022/06/25 21:07:1436.036N120.596W4 21 km (13 mi) NW of Parkfield, CA
map0.72022/06/25 21:00:5538.853N122.800W1.6 8 km ( 5 mi) WNW of Cobb, CA
map2.12022/06/25 20:47:5737.513N118.774W5.01 23 km (14 mi) SE of Mammoth Lakes, CA
map0.72022/06/25 20:40:1038.144N117.957W8.0 64 km (40 mi) W of Tonopah, NV
map0.82022/06/25 20:40:0036.100N117.864W2.48 10 km ( 6 mi) NE of Coso Junction, CA
map0.42022/06/25 20:36:1937.631N118.880W1.24 9 km ( 5 mi) E of Mammoth Lakes, CA
map0.82022/06/25 20:25:0238.816N122.776W1.21 5 km ( 3 mi) NNW of The Geysers, CA
map1.12022/06/25 19:38:2738.509N119.537W6.1 35 km (22 mi) SSW of Smith Valley, NV
map0.72022/06/25 19:32:5633.684N116.716W15.64 6 km ( 4 mi) S of Idyllwild, CA
map1.32022/06/25 19:32:0834.010N117.015W17.31 4 km ( 2 mi) SE of Yucaipa, CA
map0.92022/06/25 19:15:4135.592N117.595W6.21 8 km ( 5 mi) ESE of Ridgecrest, CA
map0.82022/06/25 19:04:1838.151N117.946W7.8 63 km (39 mi) W of Tonopah, NV
map0.62022/06/25 18:37:5233.478N116.558W10.48 14 km ( 9 mi) SE of Anza, CA
map1.72022/06/25 18:37:4938.110N118.233W1.5 57 km (36 mi) SE of Hawthorne, NV
map1.32022/06/25 18:21:2139.364N123.260W5.45 10 km ( 6 mi) ESE of Willits, CA
map0.22022/06/25 18:01:1433.671N116.765W10.86 9 km ( 5 mi) SSW of Idyllwild, CA
map0.72022/06/25 18:00:3534.029N117.545W9.43 5 km ( 3 mi) NNW of Mira Loma, CA
map0.62022/06/25 17:54:0335.660N117.489W6.25 14 km ( 9 mi) SSW of Searles Valley, CA
map0.82022/06/25 17:25:1938.653N122.728W6.36 13 km ( 8 mi) ENE of Healdsburg, CA
map1.12022/06/25 17:10:5933.705N116.762W16.25 6 km ( 3 mi) SW of Idyllwild, CA
map0.82022/06/25 17:09:0735.593N117.593W7 8 km ( 5 mi) ESE of Ridgecrest, CA
map2.12022/06/25 16:57:1233.709N116.844W15.53 6 km ( 4 mi) SE of Valle Vista, CA
map0.52022/06/25 16:48:0738.836N122.803W2.42 7 km ( 4 mi) WNW of Cobb, CA
map0.92022/06/25 16:47:2138.541N119.546W4.4 32 km (20 mi) SSW of Smith Valley, NV
map1.12022/06/25 16:30:3538.596N122.695W7.09 10 km ( 6 mi) W of Calistoga, CA
map1.42022/06/25 16:29:1735.777N117.584W6.76 16 km (10 mi) W of Searles Valley, CA
map1.42022/06/25 15:56:5838.183N117.818W6.1 53 km (33 mi) WNW of Tonopah, NV
map0.52022/06/25 15:52:2833.457N116.469W12 22 km (14 mi) ESE of Anza, CA
map0.62022/06/25 15:35:1533.625N116.674W13.32 8 km ( 5 mi) N of Anza, CA
map0.72022/06/25 15:25:0238.834N122.430W4.82 11 km ( 7 mi) ENE of Hidden Valley Lake, CA
map0.82022/06/25 15:16:1738.806N122.802W2.34 5 km ( 3 mi) NW of The Geysers, CA
map0.92022/06/25 15:14:2038.135N118.215W1.7 56 km (35 mi) SE of Hawthorne, NV
map0.82022/06/25 15:05:5238.793N122.803W3.33 4 km ( 3 mi) WNW of The Geysers, CA
map0.92022/06/25 14:58:0238.805N122.806W1.36 5 km ( 3 mi) NW of The Geysers, CA
map0.92022/06/25 14:34:0937.293N121.577W7.52 19 km (12 mi) NNE of Morgan Hill, CA
map0.92022/06/25 12:51:4238.800N122.798W2.59 4 km ( 3 mi) NW of The Geysers, CA
map0.92022/06/25 12:49:2838.842N122.878W2.4 13 km ( 8 mi) ENE of Cloverdale, CA
map0.32022/06/25 12:47:0037.630N118.865W1.02 10 km ( 6 mi) E of Mammoth Lakes, CA
map2.02022/06/25 12:25:4237.643N118.893W-1.06 8 km ( 5 mi) E of Mammoth Lakes, CA
map0.52022/06/25 12:00:0838.828N122.801W0.74 7 km ( 4 mi) W of Cobb, CA
map-0.42022/06/25 11:48:0337.637N118.879W0.65 9 km ( 5 mi) E of Mammoth Lakes, CA
map0.42022/06/25 11:27:1138.828N122.851W1.71 10 km ( 6 mi) NW of The Geysers, CA
map0.92022/06/25 11:13:4838.835N122.811W1.92 8 km ( 5 mi) W of Cobb, CA
map0.72022/06/25 11:13:0938.781N122.723W1.8 3 km ( 2 mi) E of The Geysers, CA
map0.12022/06/25 11:11:0638.795N122.781W3.6 3 km ( 2 mi) NW of The Geysers, CA
map1.62022/06/25 10:59:2937.635N118.877W0.05 9 km ( 6 mi) E of Mammoth Lakes, CA
map0.72022/06/25 10:49:3233.382N116.885W6.56 4 km ( 2 mi) NW of Palomar Observatory, CA
map0.42022/06/25 10:22:3236.360N116.253W0.0 27 km (17 mi) NW of Pahrump, NV
map1.02022/06/25 10:06:3536.464N121.503W10.01 7 km ( 4 mi) SW of Gonzales, CA
map0.62022/06/25 09:56:0935.829N117.683W8.17 23 km (14 mi) N of Ridgecrest, CA
map1.02022/06/25 09:47:1237.291N117.587W7.7 64 km (40 mi) ENE of Big Pine, CA
map0.92022/06/25 09:26:4638.792N122.763W0.65 2 km ( 1 mi) NNW of The Geysers, CA